Observation data for Panhandle on 03/01/2021      Previous  Date  Next       Current Mesonet Observations  Soil Data  Daily Summary Page  Observations in Plain Language
KPA1 010600Z 04008KT M00/M10 A3021 RMK A01 T10041096  RH  050%=      5-min Rain = 0
KPA1 010601Z 04008KT M00/M10 A3021 RMK A01 T10041096  RH  050%=      5-min Rain = 0
KPA1 010602Z 03007KT M00/M10 A3022 RMK A01 T10041097  RH  050%=      5-min Rain = 0
KPA1 010603Z 03007KT M00/M10 A3022 RMK A01 T10041097  RH  050%=      5-min Rain = 0
KPA1 010604Z 03007KT M01/M10 A3022 RMK A01 T10051097  RH  050%=      5-min Rain = 0
KPA1 010605Z 03007KT M01/M10 A3022 RMK A01 T10051098  RH  050%=      5-min Rain = 0
KPA1 010606Z 04007KT M01/M10 A3022 RMK A01 T10061098  RH  050%=      5-min Rain = 0
KPA1 010607Z 04008KT M01/M10 A3022 RMK A01 T10061098  RH  050%=      5-min Rain = 0
KPA1 010608Z 04007KT M01/M10 A3022 RMK A01 T10061098  RH  050%=      5-min Rain = 0
KPA1 010609Z 04007KT M01/M10 A3022 RMK A01 T10061098  RH  050%=      5-min Rain = 0
KPA1 010610Z 04006KT M01/M10 A3022 RMK A01 T10061098  RH  050%=      5-min Rain = 0
KPA1 010611Z 05005KT M01/M10 A3022 RMK A01 T10061098  RH  050%=      5-min Rain = 0
KPA1 010612Z 05006KT M01/M10 A3022 RMK A01 T10071098  RH  050%=      5-min Rain = 0
KPA1 010613Z 05006KT M01/M10 A3022 RMK A01 T10071098  RH  050%=      5-min Rain = 0
KPA1 010614Z 05005KT M01/M10 A3022 RMK A01 T10081098  RH  050%=      5-min Rain = 0
KPA1 010615Z 05006KT M01/M10 A3022 RMK A01 T10091099  RH  050%=      5-min Rain = 0
KPA1 010616Z 05006KT M01/M10 A3022 RMK A01 T10101100  RH  051%=      5-min Rain = 0
KPA1 010617Z 04006KT M01/M10 A3022 RMK A01 T10121100  RH  051%=      5-min Rain = 0
KPA1 010618Z 05006KT M01/M10 A3022 RMK A01 T10141101  RH  052%=      5-min Rain = 0
KPA1 010619Z 05006KT M02/M10 A3022 RMK A01 T10151101  RH  052%=      5-min Rain = 0
KPA1 010620Z 04006KT M02/M10 A3022 RMK A01 T10161102  RH  052%=      5-min Rain = 0
KPA1 010621Z 04006KT M02/M10 A3022 RMK A01 T10181102  RH  053%=      5-min Rain = 0
KPA1 010622Z 04006KT M02/M10 A3022 RMK A01 T10191102  RH  053%=      5-min Rain = 0
KPA1 010623Z 03006KT M02/M10 A3021 RMK A01 T10191102  RH  053%=      5-min Rain = 0
KPA1 010624Z 03006KT M02/M10 A3021 RMK A01 T10191101  RH  053%=      5-min Rain = 0
KPA1 010625Z 03006KT M02/M10 A3021 RMK A01 T10181100  RH  054%=      5-min Rain = 0
KPA1 010626Z 03007KT M02/M10 A3021 RMK A01 T10171099  RH  054%=      5-min Rain = 0
KPA1 010627Z 03007KT M02/M10 A3022 RMK A01 T10161098  RH  054%=      5-min Rain = 0
KPA1 010628Z 04007KT M02/M10 A3022 RMK A01 T10161097  RH  054%=      5-min Rain = 0
KPA1 010629Z 04007KT M02/M10 A3022 RMK A01 T10161097  RH  054%=      5-min Rain = 0
KPA1 010630Z 04007KT M02/M10 A3022 RMK A01 T10151097  RH  054%=      5-min Rain = 0
KPA1 010631Z 04007KT M02/M10 A3022 RMK A01 T10151097  RH  054%=      5-min Rain = 0
KPA1 010632Z 04007KT M02/M10 A3022 RMK A01 T10151097  RH  054%=      5-min Rain = 0
KPA1 010633Z 04007KT M02/M10 A3022 RMK A01 T10151097  RH  054%=      5-min Rain = 0
KPA1 010634Z 04007KT M02/M10 A3022 RMK A01 T10151097  RH  054%=      5-min Rain = 0
KPA1 010635Z 03007KT M02/M10 A3022 RMK A01 T10151097  RH  054%=      5-min Rain = 0
KPA1 010636Z 03007KT M02/M10 A3021 RMK A01 T10151098  RH  053%=      5-min Rain = 0
KPA1 010637Z 03008KT M02/M10 A3021 RMK A01 T10151098  RH  053%=      5-min Rain = 0
KPA1 010638Z 03008KT M01/M10 A3021 RMK A01 T10141098  RH  053%=      5-min Rain = 0
KPA1 010639Z 03008KT M01/M10 A3021 RMK A01 T10141097  RH  053%=      5-min Rain = 0
KPA1 010640Z 03008KT M01/M10 A3021 RMK A01 T10131097  RH  053%=      5-min Rain = 0
KPA1 010641Z 03008KT M01/M10 A3021 RMK A01 T10101096  RH  052%=      5-min Rain = 0
KPA1 010642Z 03008KT M01/M10 A3021 RMK A01 T10101096  RH  052%=      5-min Rain = 0
KPA1 010643Z 03008KT M01/M10 A3021 RMK A01 T10091096  RH  052%=      5-min Rain = 0
KPA1 010644Z 03008KT M01/M10 A3021 RMK A01 T10091096  RH  052%=      5-min Rain = 0
KPA1 010645Z 03008KT M01/M10 A3021 RMK A01 T10071096  RH  051%=      5-min Rain = 0
KPA1 010646Z 03008KT M01/M10 A3021 RMK A01 T10071096  RH  051%=      5-min Rain = 0
KPA1 010647Z 03008KT M01/M10 A3021 RMK A01 T10081097  RH  051%=      5-min Rain = 0
KPA1 010648Z 03008KT M01/M10 A3021 RMK A01 T10081097  RH  051%=      5-min Rain = 0
KPA1 010649Z 03008KT M01/M10 A3021 RMK A01 T10081097  RH  051%=      5-min Rain = 0
KPA1 010650Z 03008KT M01/M10 A3021 RMK A01 T10091097  RH  051%=      5-min Rain = 0
KPA1 010651Z 03008KT M01/M10 A3021 RMK A01 T10091097  RH  051%=      5-min Rain = 0
KPA1 010652Z 02008KT M01/M10 A3021 RMK A01 T10091097  RH  051%=      5-min Rain = 0
KPA1 010653Z 02008KT M01/M10 A3021 RMK A01 T10091096  RH  051%=      5-min Rain = 0
KPA1 010654Z 02008KT M01/M10 A3021 RMK A01 T10081096  RH  052%=      5-min Rain = 0
KPA1 010655Z 02008KT M01/M10 A3021 RMK A01 T10081096  RH  052%=      5-min Rain = 0
KPA1 010656Z 02009KT M01/M10 A3021 RMK A01 T10081096  RH  051%=      5-min Rain = 0
KPA1 010657Z 02009KT M01/M10 A3021 RMK A01 T10081096  RH  051%=      5-min Rain = 0
KPA1 010658Z 02009KT M01/M10 A3021 RMK A01 T10081096  RH  051%=      5-min Rain = 0
KPA1 010659Z 02009KT M01/M10 A3021 RMK A01 T10071095  RH  051%=      5-min Rain = 0
KPA1 010700Z 02008KT M01/M10 A3021 RMK A01 T10071095  RH  051%=      5-min Rain = 0
KPA1 010701Z 03008KT M01/M10 A3021 RMK A01 T10051095  RH  051%=      5-min Rain = 0
KPA1 010702Z 03007KT M01/M10 A3021 RMK A01 T10051095  RH  051%=      5-min Rain = 0
KPA1 010703Z 03007KT M01/M10 A3021 RMK A01 T10051095  RH  050%=      5-min Rain = 0
KPA1 010704Z 03007KT M01/M10 A3021 RMK A01 T10051096  RH  051%=      5-min Rain = 0
KPA1 010705Z 02007KT M01/M10 A3021 RMK A01 T10061095  RH  051%=      5-min Rain = 0
KPA1 010706Z 03007KT M01/M10 A3021 RMK A01 T10071096  RH  051%=      5-min Rain = 0
KPA1 010707Z 03007KT M01/M10 A3021 RMK A01 T10071096  RH  051%=      5-min Rain = 0
KPA1 010708Z 03006KT M01/M10 A3021 RMK A01 T10071095  RH  051%=      5-min Rain = 0
KPA1 010709Z 02006KT M01/M10 A3021 RMK A01 T10071095  RH  051%=      5-min Rain = 0
KPA1 010710Z 02007KT M01/M10 A3022 RMK A01 T10081095  RH  052%=      5-min Rain = 0
KPA1 010711Z 02007KT M01/M10 A3022 RMK A01 T10081095  RH  052%=      5-min Rain = 0
KPA1 010712Z 02008KT M01/M10 A3022 RMK A01 T10081095  RH  052%=      5-min Rain = 0
KPA1 010713Z 02007KT M01/M10 A3022 RMK A01 T10081095  RH  052%=      5-min Rain = 0
KPA1 010714Z 02006KT M01/M09 A3022 RMK A01 T10081094  RH  052%=      5-min Rain = 0
KPA1 010715Z 02007KT M01/M10 A3022 RMK A01 T10081095  RH  052%=      5-min Rain = 0
KPA1 010716Z 02007KT M01/M10 A3022 RMK A01 T10091095  RH  052%=      5-min Rain = 0
KPA1 010717Z 03007KT M01/M09 A3022 RMK A01 T10091094  RH  052%=      5-min Rain = 0
KPA1 010718Z 02008KT M01/M09 A3022 RMK A01 T10081094  RH  052%=      5-min Rain = 0
KPA1 010719Z 03007KT M01/M09 A3022 RMK A01 T10081094  RH  052%=      5-min Rain = 0
KPA1 010720Z 03007KT M01/M09 A3022 RMK A01 T10081094  RH  052%=      5-min Rain = 0
KPA1 010721Z 03007KT M01/M09 A3022 RMK A01 T10081094  RH  052%=      5-min Rain = 0
KPA1 010722Z 03007KT M01/M09 A3022 RMK A01 T10071093  RH  052%=      5-min Rain = 0
KPA1 010723Z 03008KT M01/M09 A3022 RMK A01 T10071094  RH  052%=      5-min Rain = 0
KPA1 010724Z 03008KT M01/M09 A3022 RMK A01 T10071093  RH  052%=      5-min Rain = 0
KPA1 010725Z 03008KT M01/M09 A3022 RMK A01 T10071093  RH  052%=      5-min Rain = 0
KPA1 010726Z 03007KT M01/M09 A3022 RMK A01 T10071093  RH  052%=      5-min Rain = 0
KPA1 010727Z 03006KT M01/M09 A3022 RMK A01 T10071093  RH  052%=      5-min Rain = 0
KPA1 010728Z 03007KT M01/M09 A3022 RMK A01 T10081093  RH  052%=      5-min Rain = 0
KPA1 010729Z 03007KT M01/M09 A3022 RMK A01 T10081094  RH  052%=      5-min Rain = 0
KPA1 010730Z 03007KT M01/M09 A3022 RMK A01 T10081093  RH  053%=      5-min Rain = 0
KPA1 010731Z 03006KT M01/M09 A3022 RMK A01 T10081093  RH  053%=      5-min Rain = 0
KPA1 010732Z 03006KT M01/M09 A3022 RMK A01 T10081094  RH  052%=      5-min Rain = 0
KPA1 010733Z 03006KT M01/M09 A3022 RMK A01 T10091094  RH  052%=      5-min Rain = 0
KPA1 010734Z 03007KT M01/M09 A3023 RMK A01 T10091094  RH  053%=      5-min Rain = 0
KPA1 010735Z 03007KT M01/M09 A3023 RMK A01 T10091093  RH  053%=      5-min Rain = 0
KPA1 010736Z 03007KT M01/M09 A3023 RMK A01 T10091093  RH  053%=      5-min Rain = 0
KPA1 010737Z 03007KT M01/M09 A3023 RMK A01 T10091093  RH  053%=      5-min Rain = 0
KPA1 010738Z 03006KT M01/M09 A3023 RMK A01 T10101094  RH  053%=      5-min Rain = 0
KPA1 010739Z 03006KT M01/M09 A3023 RMK A01 T10091094  RH  053%=      5-min Rain = 0
KPA1 010740Z 03006KT M01/M09 A3023 RMK A01 T10091093  RH  053%=      5-min Rain = 0
KPA1 010741Z 03006KT M01/M09 A3023 RMK A01 T10091094  RH  053%=      5-min Rain = 0
KPA1 010742Z 03006KT M01/M09 A3023 RMK A01 T10101094  RH  053%=      5-min Rain = 0
KPA1 010743Z 03007KT M01/M09 A3023 RMK A01 T10091093  RH  053%=      5-min Rain = 0
KPA1 010744Z 03007KT M01/M09 A3023 RMK A01 T10091093  RH  053%=      5-min Rain = 0
KPA1 010745Z 03007KT M01/M09 A3023 RMK A01 T10101093  RH  053%=      5-min Rain = 0
KPA1 010746Z 03007KT M01/M09 A3023 RMK A01 T10101093  RH  053%=      5-min Rain = 0
KPA1 010747Z 03007KT M01/M09 A3023 RMK A01 T10101093  RH  053%=      5-min Rain = 0
KPA1 010748Z 03007KT M01/M09 A3023 RMK A01 T10091093  RH  053%=      5-min Rain = 0
KPA1 010749Z 03006KT M01/M09 A3023 RMK A01 T10081092  RH  053%=      5-min Rain = 0
KPA1 010750Z 03007KT M01/M09 A3023 RMK A01 T10091093  RH  053%=      5-min Rain = 0
KPA1 010751Z 03006KT M01/M09 A3023 RMK A01 T10091092  RH  053%=      5-min Rain = 0
KPA1 010752Z 03007KT M01/M09 A3023 RMK A01 T10091092  RH  053%=      5-min Rain = 0
KPA1 010753Z 03007KT M01/M09 A3023 RMK A01 T10091092  RH  053%=      5-min Rain = 0
KPA1 010754Z 03007KT M01/M09 A3023 RMK A01 T10101092  RH  053%=      5-min Rain = 0
KPA1 010755Z 03007KT M01/M09 A3023 RMK A01 T10101092  RH  054%=      5-min Rain = 0
KPA1 010756Z 03007KT M01/M09 A3023 RMK A01 T10101092  RH  054%=      5-min Rain = 0
KPA1 010757Z 03007KT M01/M09 A3023 RMK A01 T10111093  RH  054%=      5-min Rain = 0
KPA1 010758Z 03007KT M01/M09 A3023 RMK A01 T10111093  RH  054%=      5-min Rain = 0
KPA1 010759Z 03008KT M01/M09 A3023 RMK A01 T10111093  RH  054%=      5-min Rain = 0
KPA1 010800Z 03008KT M01/M09 A3023 RMK A01 T10121093  RH  054%=      5-min Rain = 0
KPA1 010801Z 03007KT M01/M09 A3023 RMK A01 T10131094  RH  054%=      5-min Rain = 0
KPA1 010802Z 04007KT M01/M09 A3023 RMK A01 T10141094  RH  055%=      5-min Rain = 0
KPA1 010803Z 03007KT M02/M09 A3023 RMK A01 T10151094  RH  055%=      5-min Rain = 0
KPA1 010804Z 04007KT M02/M09 A3024 RMK A01 T10151094  RH  055%=      5-min Rain = 0
KPA1 010805Z 04007KT M02/M09 A3024 RMK A01 T10161094  RH  055%=      5-min Rain = 0
KPA1 010806Z 04007KT M02/M09 A3024 RMK A01 T10161094  RH  055%=      5-min Rain = 0
KPA1 010807Z 04007KT M02/M09 A3024 RMK A01 T10171094  RH  056%=      5-min Rain = 0
KPA1 010808Z 04007KT M02/M09 A3024 RMK A01 T10171094  RH  056%=      5-min Rain = 0
KPA1 010809Z 04007KT M02/M09 A3024 RMK A01 T10171094  RH  056%=      5-min Rain = 0
KPA1 010810Z 04007KT M02/M09 A3024 RMK A01 T10181094  RH  056%=      5-min Rain = 0
KPA1 010811Z 04006KT M02/M09 A3024 RMK A01 T10181094  RH  056%=      5-min Rain = 0
KPA1 010812Z 04006KT M02/M09 A3024 RMK A01 T10191094  RH  056%=      5-min Rain = 0
KPA1 010813Z 04006KT M02/M09 A3024 RMK A01 T10191094  RH  057%=      5-min Rain = 0
KPA1 010814Z 04006KT M02/M09 A3024 RMK A01 T10201094  RH  057%=      5-min Rain = 0
KPA1 010815Z 04005KT M02/M09 A3024 RMK A01 T10211094  RH  057%=      5-min Rain = 0
KPA1 010816Z 04006KT M02/M10 A3024 RMK A01 T10211095  RH  057%=      5-min Rain = 0
KPA1 010817Z 04006KT M02/M10 A3025 RMK A01 T10221095  RH  058%=      5-min Rain = 0
KPA1 010818Z 04005KT M02/M10 A3025 RMK A01 T10231095  RH  058%=      5-min Rain = 0
KPA1 010819Z 04005KT M02/M10 A3025 RMK A01 T10231095  RH  058%=      5-min Rain = 0
KPA1 010820Z 04005KT M02/M10 A3025 RMK A01 T10241095  RH  058%=      5-min Rain = 0
KPA1 010821Z 04005KT M02/M10 A3025 RMK A01 T10241096  RH  058%=      5-min Rain = 0
KPA1 010822Z 05004KT M03/M10 A3025 RMK A01 T10251097  RH  058%=      5-min Rain = 0
KPA1 010823Z 05004KT M03/M10 A3025 RMK A01 T10261098  RH  058%=      5-min Rain = 0
KPA1 010824Z 05004KT M03/M10 A3025 RMK A01 T10281099  RH  058%=      5-min Rain = 0
KPA1 010825Z 05004KT M03/M10 A3025 RMK A01 T10291099  RH  059%=      5-min Rain = 0
KPA1 010826Z 05005KT M03/M10 A3025 RMK A01 T10311100  RH  059%=      5-min Rain = 0
KPA1 010827Z 05005KT M03/M10 A3025 RMK A01 T10331100  RH  060%=      5-min Rain = 0
KPA1 010828Z 05005KT M03/M10 A3025 RMK A01 T10341100  RH  060%=      5-min Rain = 0
KPA1 010829Z 05005KT M04/M10 A3025 RMK A01 T10351100  RH  061%=      5-min Rain = 0
KPA1 010830Z 04005KT M04/M10 A3026 RMK A01 T10351099  RH  061%=      5-min Rain = 0
KPA1 010831Z 04005KT M04/M10 A3026 RMK A01 T10351098  RH  062%=      5-min Rain = 0
KPA1 010832Z 04004KT M04/M10 A3025 RMK A01 T10351097  RH  062%=      5-min Rain = 0
KPA1 010833Z 04004KT M04/M10 A3025 RMK A01 T10351096  RH  063%=      5-min Rain = 0
KPA1 010834Z 05004KT M04/M09 A3025 RMK A01 T10361094  RH  064%=      5-min Rain = 0
KPA1 010835Z 05004KT M04/M09 A3025 RMK A01 T10371094  RH  065%=      5-min Rain = 0
KPA1 010836Z 05005KT M04/M09 A3025 RMK A01 T10371094  RH  065%=      5-min Rain = 0
KPA1 010837Z 05005KT M04/M10 A3025 RMK A01 T10381095  RH  064%=      5-min Rain = 0
KPA1 010838Z 05005KT M04/M10 A3025 RMK A01 T10381096  RH  064%=      5-min Rain = 0
KPA1 010839Z 05005KT M04/M10 A3025 RMK A01 T10371095  RH  064%=      5-min Rain = 0
KPA1 010840Z 05005KT M04/M10 A3025 RMK A01 T10371095  RH  064%=      5-min Rain = 0
KPA1 010841Z 05005KT M04/M10 A3025 RMK A01 T10361095  RH  064%=      5-min Rain = 0
KPA1 010842Z 05005KT M04/M10 A3025 RMK A01 T10361095  RH  064%=      5-min Rain = 0
KPA1 010843Z 05005KT M04/M10 A3025 RMK A01 T10371095  RH  064%=      5-min Rain = 0
KPA1 010844Z 05005KT M04/M10 A3025 RMK A01 T10371096  RH  064%=      5-min Rain = 0
KPA1 010845Z 05005KT M04/M10 A3025 RMK A01 T10371096  RH  064%=      5-min Rain = 0
KPA1 010846Z 05004KT M04/M10 A3025 RMK A01 T10371096  RH  064%=      5-min Rain = 0
KPA1 010847Z 05004KT M04/M10 A3025 RMK A01 T10371096  RH  064%=      5-min Rain = 0
KPA1 010848Z 05004KT M04/M10 A3026 RMK A01 T10371096  RH  064%=      5-min Rain = 0
KPA1 010849Z 05004KT M04/M10 A3025 RMK A01 T10381096  RH  064%=      5-min Rain = 0
KPA1 010850Z 05004KT M04/M10 A3025 RMK A01 T10381096  RH  064%=      5-min Rain = 0
KPA1 010851Z 05004KT M04/M10 A3025 RMK A01 T10381096  RH  064%=      5-min Rain = 0
KPA1 010852Z 05003KT M04/M10 A3025 RMK A01 T10381097  RH  064%=      5-min Rain = 0
KPA1 010853Z 05003KT M04/M10 A3026 RMK A01 T10381097  RH  064%=      5-min Rain = 0
KPA1 010854Z 05003KT M04/M10 A3026 RMK A01 T10381097  RH  064%=      5-min Rain = 0
KPA1 010855Z 05004KT M04/M10 A3026 RMK A01 T10391097  RH  064%=      5-min Rain = 0
KPA1 010856Z 05004KT M04/M10 A3026 RMK A01 T10391097  RH  064%=      5-min Rain = 0
KPA1 010857Z 05004KT M04/M10 A3026 RMK A01 T10391097  RH  064%=      5-min Rain = 0
KPA1 010858Z 05003KT M04/M10 A3026 RMK A01 T10391097  RH  064%=      5-min Rain = 0
KPA1 010859Z 05003KT M04/M10 A3025 RMK A01 T10391096  RH  064%=      5-min Rain = 0
KPA1 010900Z 05003KT M04/M10 A3025 RMK A01 T10391096  RH  065%=      5-min Rain = 0
KPA1 010901Z 05003KT M04/M10 A3025 RMK A01 T10401096  RH  065%=      5-min Rain = 0
KPA1 010902Z 05004KT M04/M10 A3025 RMK A01 T10401096  RH  065%=      5-min Rain = 0
KPA1 010903Z 04004KT M04/M10 A3025 RMK A01 T10401096  RH  065%=      5-min Rain = 0
KPA1 010904Z 04004KT M04/M10 A3025 RMK A01 T10401096  RH  065%=      5-min Rain = 0
KPA1 010905Z 04005KT M04/M10 A3025 RMK A01 T10401097  RH  065%=      5-min Rain = 0
KPA1 010906Z 04005KT M04/M10 A3025 RMK A01 T10401097  RH  065%=      5-min Rain = 0
KPA1 010907Z 04005KT M04/M10 A3025 RMK A01 T10391096  RH  065%=      5-min Rain = 0
KPA1 010908Z 04005KT M04/M10 A3025 RMK A01 T10381095  RH  065%=      5-min Rain = 0
KPA1 010909Z 04005KT M04/M09 A3025 RMK A01 T10371093  RH  065%=      5-min Rain = 0
KPA1 010910Z 03005KT M04/M09 A3025 RMK A01 T10361092  RH  065%=      5-min Rain = 0
KPA1 010911Z 03005KT M04/M09 A3025 RMK A01 T10361092  RH  065%=      5-min Rain = 0
KPA1 010912Z 03005KT M04/M09 A3024 RMK A01 T10351091  RH  065%=      5-min Rain = 0
KPA1 010913Z 03006KT M03/M09 A3024 RMK A01 T10341090  RH  065%=      5-min Rain = 0
KPA1 010914Z 03006KT M03/M09 A3024 RMK A01 T10331089  RH  065%=      5-min Rain = 0
KPA1 010915Z 03005KT M03/M09 A3024 RMK A01 T10311088  RH  065%=      5-min Rain = 0
KPA1 010916Z 02005KT M03/M09 A3024 RMK A01 T10301088  RH  064%=      5-min Rain = 0
KPA1 010917Z 03006KT M03/M09 A3024 RMK A01 T10291088  RH  064%=      5-min Rain = 0
KPA1 010918Z 02006KT M03/M09 A3024 RMK A01 T10281087  RH  064%=      5-min Rain = 0
KPA1 010919Z 03006KT M03/M09 A3024 RMK A01 T10271087  RH  063%=      5-min Rain = 0
KPA1 010920Z 03006KT M03/M09 A3024 RMK A01 T10251086  RH  063%=      5-min Rain = 0
KPA1 010921Z 03006KT M02/M09 A3024 RMK A01 T10241086  RH  062%=      5-min Rain = 0
KPA1 010922Z 02006KT M02/M09 A3024 RMK A01 T10231086  RH  062%=      5-min Rain = 0
KPA1 010923Z 02006KT M02/M09 A3024 RMK A01 T10221086  RH  061%=      5-min Rain = 0
KPA1 010924Z 02006KT M02/M09 A3024 RMK A01 T10211087  RH  061%=      5-min Rain = 0
KPA1 010925Z 03006KT M02/M09 A3024 RMK A01 T10211087  RH  061%=      5-min Rain = 0
KPA1 010926Z 03006KT M02/M09 A3023 RMK A01 T10211087  RH  060%=      5-min Rain = 0
KPA1 010927Z 03007KT M02/M09 A3023 RMK A01 T10201087  RH  060%=      5-min Rain = 0
KPA1 010928Z 03007KT M02/M09 A3023 RMK A01 T10201087  RH  060%=      5-min Rain = 0
KPA1 010929Z 03007KT M02/M09 A3023 RMK A01 T10191087  RH  060%=      5-min Rain = 0
KPA1 010930Z 03006KT M02/M09 A3023 RMK A01 T10181087  RH  060%=      5-min Rain = 0
KPA1 010931Z 03006KT M02/M09 A3023 RMK A01 T10181087  RH  059%=      5-min Rain = 0
KPA1 010932Z 03007KT M02/M09 A3023 RMK A01 T10181087  RH  059%=      5-min Rain = 0
KPA1 010933Z 03006KT M02/M09 A3023 RMK A01 T10181087  RH  059%=      5-min Rain = 0
KPA1 010934Z 03007KT M02/M09 A3023 RMK A01 T10181087  RH  059%=      5-min Rain = 0
KPA1 010935Z 03007KT M02/M09 A3023 RMK A01 T10171087  RH  059%=      5-min Rain = 0
KPA1 010936Z 03007KT M02/M09 A3022 RMK A01 T10171087  RH  059%=      5-min Rain = 0
KPA1 010937Z 02008KT M02/M09 A3022 RMK A01 T10161087  RH  058%=      5-min Rain = 0
KPA1 010938Z 02008KT M02/M09 A3022 RMK A01 T10161087  RH  058%=      5-min Rain = 0
KPA1 010939Z 02008KT M02/M09 A3022 RMK A01 T10151087  RH  058%=      5-min Rain = 0
KPA1 010940Z 02008KT M02/M09 A3022 RMK A01 T10151087  RH  058%=      5-min Rain = 0
KPA1 010941Z 02009KT M02/M09 A3022 RMK A01 T10151087  RH  058%=      5-min Rain = 0
KPA1 010942Z 02009KT M02/M09 A3022 RMK A01 T10151087  RH  058%=      5-min Rain = 0
KPA1 010943Z 02009KT M02/M09 A3022 RMK A01 T10151087  RH  058%=      5-min Rain = 0
KPA1 010944Z 02009KT M01/M09 A3022 RMK A01 T10141087  RH  058%=      5-min Rain = 0
KPA1 010945Z 02009KT M01/M09 A3022 RMK A01 T10131086  RH  057%=      5-min Rain = 0
KPA1 010946Z 02009KT M01/M09 A3022 RMK A01 T10131087  RH  057%=      5-min Rain = 0
KPA1 010947Z 02009KT M01/M09 A3022 RMK A01 T10131087  RH  057%=      5-min Rain = 0
KPA1 010948Z 02008KT M01/M09 A3022 RMK A01 T10121087  RH  057%=      5-min Rain = 0
KPA1 010949Z 02009KT M01/M09 A3022 RMK A01 T10121087  RH  057%=      5-min Rain = 0
KPA1 010950Z 02009KT M01/M09 A3022 RMK A01 T10121087  RH  057%=      5-min Rain = 0
KPA1 010951Z 02010KT M01/M09 A3022 RMK A01 T10121087  RH  057%=      5-min Rain = 0
KPA1 010952Z 02009KT M01/M09 A3022 RMK A01 T10121087  RH  057%=      5-min Rain = 0
KPA1 010953Z 02008KT M01/M09 A3022 RMK A01 T10111086  RH  057%=      5-min Rain = 0
KPA1 010954Z 02009KT M01/M09 A3023 RMK A01 T10111087  RH  056%=      5-min Rain = 0
KPA1 010955Z 02008KT M01/M09 A3023 RMK A01 T10111087  RH  056%=      5-min Rain = 0
KPA1 010956Z 02009KT M01/M09 A3023 RMK A01 T10101087  RH  056%=      5-min Rain = 0
KPA1 010957Z 02008KT M01/M09 A3023 RMK A01 T10091087  RH  056%=      5-min Rain = 0
KPA1 010958Z 02008KT M01/M09 A3023 RMK A01 T10101087  RH  056%=      5-min Rain = 0
KPA1 010959Z 02009KT M01/M09 A3023 RMK A01 T10111088  RH  056%=      5-min Rain = 0
KPA1 011000Z 01008KT M01/M09 A3023 RMK A01 T10111088  RH  056%=      5-min Rain = 0
KPA1 011001Z 01008KT M01/M09 A3023 RMK A01 T10111088  RH  056%=      5-min Rain = 0
KPA1 011002Z 01007KT M01/M09 A3023 RMK A01 T10121088  RH  056%=      5-min Rain = 0
KPA1 011003Z 01007KT M01/M09 A3023 RMK A01 T10121087  RH  057%=      5-min Rain = 0
KPA1 011004Z 01008KT M01/M09 A3022 RMK A01 T10131087  RH  057%=      5-min Rain = 0
KPA1 011005Z 01007KT M01/M09 A3022 RMK A01 T10131087  RH  057%=      5-min Rain = 0
KPA1 011006Z 01008KT M01/M09 A3022 RMK A01 T10141087  RH  057%=      5-min Rain = 0
KPA1 011007Z 00008KT M02/M09 A3022 RMK A01 T10151087  RH  058%=      5-min Rain = 0
KPA1 011008Z 00009KT M02/M09 A3022 RMK A01 T10161087  RH  058%=      5-min Rain = 0
KPA1 011009Z 00008KT M02/M09 A3022 RMK A01 T10171086  RH  059%=      5-min Rain = 0
KPA1 011010Z 00008KT M02/M09 A3022 RMK A01 T10171086  RH  059%=      5-min Rain = 0
KPA1 011011Z 00008KT M02/M09 A3022 RMK A01 T10181086  RH  060%=      5-min Rain = 0
KPA1 011012Z 00009KT M02/M09 A3022 RMK A01 T10181085  RH  060%=      5-min Rain = 0
KPA1 011013Z 00009KT M02/M09 A3022 RMK A01 T10171085  RH  060%=      5-min Rain = 0
KPA1 011014Z 01010KT M02/M09 A3022 RMK A01 T10151085  RH  059%=      5-min Rain = 0
KPA1 011015Z 01009KT M01/M09 A3022 RMK A01 T10141085  RH  059%=      5-min Rain = 0
KPA1 011016Z 01010KT M02/M09 A3022 RMK A01 T10151085  RH  059%=      5-min Rain = 0
KPA1 011017Z 00010KT M02/M09 A3022 RMK A01 T10151086  RH  059%=      5-min Rain = 0
KPA1 011018Z 00010KT M02/M09 A3022 RMK A01 T10151086  RH  058%=      5-min Rain = 0
KPA1 011019Z 00010KT M02/M09 A3022 RMK A01 T10151086  RH  058%=      5-min Rain = 0
KPA1 011020Z 00010KT M02/M09 A3022 RMK A01 T10161087  RH  059%=      5-min Rain = 0
KPA1 011021Z 00011KT M02/M09 A3022 RMK A01 T10161086  RH  059%=      5-min Rain = 0
KPA1 011022Z 00011KT M02/M09 A3022 RMK A01 T10161087  RH  059%=      5-min Rain = 0
KPA1 011023Z 01010KT M02/M09 A3022 RMK A01 T10161087  RH  059%=      5-min Rain = 0
KPA1 011024Z 01010KT M02/M09 A3022 RMK A01 T10161086  RH  059%=      5-min Rain = 0
KPA1 011025Z 01011KT M02/M09 A3022 RMK A01 T10161087  RH  059%=      5-min Rain = 0
KPA1 011026Z 00008KT M02/M09 A3022 RMK A01 T10161086  RH  059%=      5-min Rain = 0
KPA1 011027Z 01009KT M02/M09 A3022 RMK A01 T10171086  RH  059%=      5-min Rain = 0
KPA1 011028Z 01009KT M02/M09 A3022 RMK A01 T10171086  RH  059%=      5-min Rain = 0
KPA1 011029Z 01008KT M02/M09 A3022 RMK A01 T10171086  RH  060%=      5-min Rain = 0
KPA1 011030Z 01008KT M02/M09 A3023 RMK A01 T10171085  RH  060%=      5-min Rain = 0
KPA1 011031Z 01007KT M02/M09 A3023 RMK A01 T10171085  RH  060%=      5-min Rain = 0
KPA1 011032Z 02007KT M02/M09 A3023 RMK A01 T10181085  RH  060%=      5-min Rain = 0
KPA1 011033Z 02007KT M02/M09 A3023 RMK A01 T10181085  RH  060%=      5-min Rain = 0
KPA1 011034Z 02006KT M02/M09 A3023 RMK A01 T10181085  RH  060%=      5-min Rain = 0
KPA1 011035Z 02007KT M02/M09 A3024 RMK A01 T10171085  RH  060%=      5-min Rain = 0
KPA1 011036Z 02008KT M02/M09 A3024 RMK A01 T10161085  RH  059%=      5-min Rain = 0
KPA1 011037Z 02007KT M02/M09 A3024 RMK A01 T10151085  RH  059%=      5-min Rain = 0
KPA1 011038Z 02007KT M02/M09 A3024 RMK A01 T10151086  RH  058%=      5-min Rain = 0
KPA1 011039Z 02006KT M02/M09 A3024 RMK A01 T10151086  RH  058%=      5-min Rain = 0
KPA1 011040Z 02007KT M02/M09 A3024 RMK A01 T10161086  RH  059%=      5-min Rain = 0
KPA1 011041Z 02006KT M02/M09 A3024 RMK A01 T10161086  RH  059%=      5-min Rain = 0
KPA1 011042Z 02006KT M02/M09 A3024 RMK A01 T10171086  RH  059%=      5-min Rain = 0
KPA1 011043Z 02006KT M02/M09 A3024 RMK A01 T10181087  RH  060%=      5-min Rain = 0
KPA1 011044Z 02006KT M02/M09 A3025 RMK A01 T10181086  RH  060%=      5-min Rain = 0
KPA1 011045Z 03007KT M02/M09 A3025 RMK A01 T10181086  RH  060%=      5-min Rain = 0
KPA1 011046Z 03007KT M02/M09 A3025 RMK A01 T10181086  RH  060%=      5-min Rain = 0
KPA1 011047Z 02006KT M02/M09 A3025 RMK A01 T10191087  RH  060%=      5-min Rain = 0
KPA1 011048Z 02005KT M02/M09 A3025 RMK A01 T10191087  RH  060%=      5-min Rain = 0
KPA1 011049Z 02005KT M02/M09 A3025 RMK A01 T10201087  RH  060%=      5-min Rain = 0
KPA1 011050Z 02006KT M02/M09 A3025 RMK A01 T10201086  RH  061%=      5-min Rain = 0
KPA1 011051Z 02006KT M02/M09 A3025 RMK A01 T10211086  RH  061%=      5-min Rain = 0
KPA1 011052Z 02006KT M02/M09 A3025 RMK A01 T10211086  RH  061%=      5-min Rain = 0
KPA1 011053Z 02006KT M02/M09 A3025 RMK A01 T10211087  RH  061%=      5-min Rain = 0
KPA1 011054Z 02006KT M02/M09 A3026 RMK A01 T10221087  RH  061%=      5-min Rain = 0
KPA1 011055Z 01006KT M02/M09 A3026 RMK A01 T10221087  RH  061%=      5-min Rain = 0
KPA1 011056Z 02006KT M02/M09 A3026 RMK A01 T10231087  RH  061%=      5-min Rain = 0
KPA1 011057Z 01006KT M02/M09 A3026 RMK A01 T10231086  RH  062%=      5-min Rain = 0
KPA1 011058Z 01005KT M02/M09 A3026 RMK A01 T10231086  RH  062%=      5-min Rain = 0
KPA1 011059Z 00005KT M02/M09 A3026 RMK A01 T10231086  RH  062%=      5-min Rain = 0
KPA1 011100Z 00004KT M02/M09 A3026 RMK A01 T10241086  RH  062%=      5-min Rain = 0
KPA1 011101Z 00004KT M03/M09 A3027 RMK A01 T10251087  RH  062%=      5-min Rain = 0
KPA1 011102Z 00005KT M03/M09 A3027 RMK A01 T10261087  RH  063%=      5-min Rain = 0
KPA1 011103Z 36005KT M03/M09 A3027 RMK A01 T10261086  RH  064%=      5-min Rain = 0
KPA1 011104Z 35005KT M03/M09 A3027 RMK A01 T10271086  RH  064%=      5-min Rain = 0
KPA1 011105Z 36005KT M03/M09 A3027 RMK A01 T10271086  RH  064%=      5-min Rain = 0
KPA1 011106Z 36005KT M03/M09 A3027 RMK A01 T10261086  RH  064%=      5-min Rain = 0
KPA1 011107Z 00005KT M03/M09 A3027 RMK A01 T10261085  RH  064%=      5-min Rain = 0
KPA1 011108Z 00005KT M03/M09 A3027 RMK A01 T10261086  RH  064%=      5-min Rain = 0
KPA1 011109Z 00005KT M03/M09 A3027 RMK A01 T10261086  RH  063%=      5-min Rain = 0
KPA1 011110Z 00005KT M03/M09 A3027 RMK A01 T10261086  RH  064%=      5-min Rain = 0
KPA1 011111Z 00004KT M03/M09 A3027 RMK A01 T10261085  RH  064%=      5-min Rain = 0
KPA1 011112Z 00005KT M03/M09 A3027 RMK A01 T10261085  RH  064%=      5-min Rain = 0
KPA1 011113Z 00005KT M03/M09 A3027 RMK A01 T10271085  RH  064%=      5-min Rain = 0
KPA1 011114Z 00004KT M03/M09 A3028 RMK A01 T10271085  RH  064%=      5-min Rain = 0
KPA1 011115Z 01004KT M03/M09 A3028 RMK A01 T10271085  RH  064%=      5-min Rain = 0
KPA1 011116Z 01004KT M03/M09 A3028 RMK A01 T10261085  RH  064%=      5-min Rain = 0
KPA1 011117Z 01004KT M03/M09 A3028 RMK A01 T10261085  RH  064%=      5-min Rain = 0
KPA1 011118Z 01004KT M03/M09 A3028 RMK A01 T10261085  RH  064%=      5-min Rain = 0
KPA1 011119Z 01004KT M03/M09 A3028 RMK A01 T10251085  RH  063%=      5-min Rain = 0
KPA1 011120Z 01004KT M03/M09 A3028 RMK A01 T10251085  RH  064%=      5-min Rain = 0
KPA1 011121Z 00004KT M03/M09 A3028 RMK A01 T10251085  RH  064%=      5-min Rain = 0
KPA1 011122Z 01005KT M03/M09 A3028 RMK A01 T10251085  RH  064%=      5-min Rain = 0
KPA1 011123Z 01005KT M03/M09 A3028 RMK A01 T10261085  RH  064%=      5-min Rain = 0
KPA1 011124Z 01005KT M03/M09 A3028 RMK A01 T10251085  RH  063%=      5-min Rain = 0
KPA1 011125Z 00005KT M03/M09 A3028 RMK A01 T10251085  RH  063%=      5-min Rain = 0
KPA1 011126Z 01005KT M02/M09 A3028 RMK A01 T10241085  RH  063%=      5-min Rain = 0
KPA1 011127Z 00005KT M02/M09 A3028 RMK A01 T10241085  RH  063%=      5-min Rain = 0
KPA1 011128Z 00005KT M03/M09 A3028 RMK A01 T10251085  RH  063%=      5-min Rain = 0
KPA1 011129Z 00006KT M03/M09 A3028 RMK A01 T10251085  RH  064%=      5-min Rain = 0
KPA1 011130Z 36006KT M03/M09 A3028 RMK A01 T10251085  RH  064%=      5-min Rain = 0
KPA1 011131Z 35006KT M03/M09 A3027 RMK A01 T10261085  RH  064%=      5-min Rain = 0
KPA1 011132Z 35006KT M03/M09 A3027 RMK A01 T10261085  RH  064%=      5-min Rain = 0
KPA1 011133Z 35006KT M03/M09 A3027 RMK A01 T10261085  RH  064%=      5-min Rain = 0
KPA1 011134Z 35007KT M03/M09 A3028 RMK A01 T10261086  RH  063%=      5-min Rain = 0
KPA1 011135Z 35006KT M03/M09 A3028 RMK A01 T10261086  RH  063%=      5-min Rain = 0
KPA1 011136Z 35006KT M03/M09 A3028 RMK A01 T10261086  RH  063%=      5-min Rain = 0
KPA1 011137Z 35006KT M03/M09 A3028 RMK A01 T10261086  RH  063%=      5-min Rain = 0
KPA1 011138Z 36007KT M03/M09 A3028 RMK A01 T10261087  RH  063%=      5-min Rain = 0
KPA1 011139Z 35006KT M03/M09 A3028 RMK A01 T10251087  RH  063%=      5-min Rain = 0
KPA1 011140Z 36006KT M03/M09 A3028 RMK A01 T10251087  RH  063%=      5-min Rain = 0
KPA1 011141Z 35006KT M03/M09 A3028 RMK A01 T10251087  RH  063%=      5-min Rain = 0
KPA1 011142Z 36006KT M03/M09 A3028 RMK A01 T10251086  RH  063%=      5-min Rain = 0
KPA1 011143Z 35006KT M03/M09 A3028 RMK A01 T10251086  RH  063%=      5-min Rain = 0
KPA1 011144Z 35006KT M03/M09 A3028 RMK A01 T10251087  RH  063%=      5-min Rain = 0
KPA1 011145Z 35006KT M03/M09 A3028 RMK A01 T10251086  RH  063%=      5-min Rain = 0
KPA1 011146Z 35006KT M03/M09 A3028 RMK A01 T10251086  RH  063%=      5-min Rain = 0
KPA1 011147Z 34005KT M03/M09 A3029 RMK A01 T10251087  RH  063%=      5-min Rain = 0
KPA1 011148Z 35005KT M03/M09 A3029 RMK A01 T10251087  RH  062%=      5-min Rain = 0
KPA1 011149Z 35005KT M03/M09 A3029 RMK A01 T10251086  RH  062%=      5-min Rain = 0
KPA1 011150Z 35005KT M03/M09 A3029 RMK A01 T10251087  RH  062%=      5-min Rain = 0
KPA1 011151Z 35005KT M02/M09 A3029 RMK A01 T10241087  RH  062%=      5-min Rain = 0
KPA1 011152Z 35004KT M02/M09 A3029 RMK A01 T10241087  RH  062%=      5-min Rain = 0
KPA1 011153Z 35004KT M02/M09 A3029 RMK A01 T10241087  RH  062%=      5-min Rain = 0
KPA1 011154Z 35004KT M02/M09 A3029 RMK A01 T10241087  RH  062%=      5-min Rain = 0
KPA1 011155Z 36004KT M02/M09 A3029 RMK A01 T10241087  RH  062%=      5-min Rain = 0
KPA1 011156Z 35004KT M02/M09 A3029 RMK A01 T10241087  RH  062%=      5-min Rain = 0
KPA1 011157Z 35003KT M03/M09 A3029 RMK A01 T10251086  RH  063%=      5-min Rain = 0
KPA1 011158Z 35003KT M03/M09 A3029 RMK A01 T10251087  RH  063%=      5-min Rain = 0
KPA1 011159Z 35003KT M03/M09 A3029 RMK A01 T10251087  RH  062%=      5-min Rain = 0
KPA1 011200Z 35003KT M03/M09 A3029 RMK A01 T10251087  RH  063%=      5-min Rain = 0
KPA1 011201Z 35002KT M03/M09 A303 RMK A01 T10251086  RH  063%=      5-min Rain = 0
KPA1 011202Z 35002KT M03/M09 A303 RMK A01 T10251087  RH  063%=      5-min Rain = 0
KPA1 011203Z 35002KT M03/M09 A303 RMK A01 T10251087  RH  063%=      5-min Rain = 0
KPA1 011204Z 35002KT M03/M09 A303 RMK A01 T10261087  RH  063%=      5-min Rain = 0
KPA1 011205Z 35002KT M03/M09 A303 RMK A01 T10261087  RH  063%=      5-min Rain = 0
KPA1 011206Z 34002KT M03/M09 A303 RMK A01 T10261088  RH  063%=      5-min Rain = 0
KPA1 011207Z 34002KT M03/M09 A303 RMK A01 T10251087  RH  062%=      5-min Rain = 0
KPA1 011208Z 33002KT M03/M09 A303 RMK A01 T10251088  RH  062%=      5-min Rain = 0
KPA1 011209Z 32002KT M03/M09 A303 RMK A01 T10251088  RH  062%=      5-min Rain = 0
KPA1 011210Z 32002KT M03/M09 A303 RMK A01 T10251087  RH  063%=      5-min Rain = 0
KPA1 011211Z 32002KT M03/M09 A303 RMK A01 T10291088  RH  064%=      5-min Rain = 0
KPA1 011212Z 31002KT M03/M09 A303 RMK A01 T10321087  RH  066%=      5-min Rain = 0
KPA1 011213Z 31003KT M03/M09 A303 RMK A01 T10341085  RH  068%=      5-min Rain = 0
KPA1 011214Z 31003KT M03/M08 A303 RMK A01 T10341083  RH  069%=      5-min Rain = 0
KPA1 011215Z 31003KT M04/M08 A303 RMK A01 T10351083  RH  069%=      5-min Rain = 0
KPA1 011216Z 31003KT M04/M08 A303 RMK A01 T10351082  RH  070%=      5-min Rain = 0
KPA1 011217Z 32004KT M03/M08 A303 RMK A01 T10341082  RH  069%=      5-min Rain = 0
KPA1 011218Z 32004KT M03/M08 A303 RMK A01 T10341082  RH  069%=      5-min Rain = 0
KPA1 011219Z 32004KT M03/M08 A3031 RMK A01 T10341082  RH  070%=      5-min Rain = 0
KPA1 011220Z 32004KT M03/M08 A3031 RMK A01 T10341082  RH  070%=      5-min Rain = 0
KPA1 011221Z 32003KT M03/M08 A3031 RMK A01 T10341082  RH  069%=      5-min Rain = 0
KPA1 011222Z 33002KT M03/M08 A3031 RMK A01 T10341084  RH  069%=      5-min Rain = 0
KPA1 011223Z 33002KT M03/M08 A3031 RMK A01 T10341084  RH  068%=      5-min Rain = 0
KPA1 011224Z 33003KT M03/M09 A3031 RMK A01 T10341085  RH  068%=      5-min Rain = 0
KPA1 011225Z 33003KT M03/M08 A3031 RMK A01 T10341084  RH  068%=      5-min Rain = 0
KPA1 011226Z 33003KT M03/M09 A3031 RMK A01 T10341085  RH  068%=      5-min Rain = 0
KPA1 011227Z 33003KT M03/M09 A3031 RMK A01 T10341085  RH  068%=      5-min Rain = 0
KPA1 011228Z 33003KT M03/M09 A3031 RMK A01 T10341085  RH  067%=      5-min Rain = 0
KPA1 011229Z 33004KT M03/M09 A3031 RMK A01 T10341086  RH  067%=      5-min Rain = 0
KPA1 011230Z 33004KT M03/M09 A3031 RMK A01 T10341085  RH  067%=      5-min Rain = 0
KPA1 011231Z 33004KT M03/M09 A3031 RMK A01 T10341085  RH  068%=      5-min Rain = 0
KPA1 011232Z 33004KT M03/M09 A3031 RMK A01 T10341085  RH  068%=      5-min Rain = 0
KPA1 011233Z 33004KT M03/M09 A3031 RMK A01 T10341085  RH  068%=      5-min Rain = 0
KPA1 011234Z 32003KT M03/M09 A3031 RMK A01 T10341085  RH  068%=      5-min Rain = 0
KPA1 011235Z 33003KT M04/M09 A3031 RMK A01 T10351085  RH  068%=      5-min Rain = 0
KPA1 011236Z 33003KT M04/M09 A3031 RMK A01 T10351085  RH  068%=      5-min Rain = 0
KPA1 011237Z 33002KT M04/M09 A3031 RMK A01 T10361085  RH  068%=      5-min Rain = 0
KPA1 011238Z 33002KT M04/M09 A3031 RMK A01 T10361085  RH  068%=      5-min Rain = 0
KPA1 011239Z 33002KT M04/M09 A3031 RMK A01 T10361086  RH  068%=      5-min Rain = 0
KPA1 011240Z 33002KT M04/M09 A3031 RMK A01 T10361086  RH  068%=      5-min Rain = 0
KPA1 011241Z 33003KT M04/M09 A3031 RMK A01 T10361086  RH  068%=      5-min Rain = 0
KPA1 011242Z 33003KT M04/M09 A3031 RMK A01 T10361085  RH  069%=      5-min Rain = 0
KPA1 011243Z 33003KT M04/M09 A3031 RMK A01 T10361086  RH  069%=      5-min Rain = 0
KPA1 011244Z 33003KT M04/M09 A3031 RMK A01 T10371086  RH  069%=      5-min Rain = 0
KPA1 011245Z 32003KT M04/M09 A3031 RMK A01 T10361086  RH  069%=      5-min Rain = 0
KPA1 011246Z 32004KT M04/M09 A3031 RMK A01 T10361086  RH  069%=      5-min Rain = 0
KPA1 011247Z 33003KT M04/M09 A3031 RMK A01 T10371086  RH  069%=      5-min Rain = 0
KPA1 011248Z 33004KT M04/M09 A3031 RMK A01 T10381086  RH  069%=      5-min Rain = 0
KPA1 011249Z 33004KT M04/M09 A3031 RMK A01 T10391086  RH  070%=      5-min Rain = 0
KPA1 011250Z 33004KT M04/M09 A3031 RMK A01 T10391086  RH  070%=      5-min Rain = 0
KPA1 011251Z 33004KT M04/M09 A3031 RMK A01 T10391086  RH  070%=      5-min Rain = 0
KPA1 011252Z 33004KT M04/M09 A3031 RMK A01 T10381086  RH  070%=      5-min Rain = 0
KPA1 011253Z 33004KT M04/M09 A3031 RMK A01 T10381085  RH  070%=      5-min Rain = 0
KPA1 011254Z 33005KT M04/M09 A3031 RMK A01 T10371085  RH  069%=      5-min Rain = 0
KPA1 011255Z 33005KT M04/M09 A3031 RMK A01 T10371085  RH  069%=      5-min Rain = 0
KPA1 011256Z 33005KT M04/M09 A3031 RMK A01 T10371085  RH  069%=      5-min Rain = 0
KPA1 011257Z 33005KT M04/M09 A3031 RMK A01 T10371085  RH  069%=      5-min Rain = 0
KPA1 011258Z 32005KT M04/M09 A3031 RMK A01 T10371085  RH  069%=      5-min Rain = 0
KPA1 011259Z 32005KT M04/M09 A3031 RMK A01 T10371085  RH  069%=      5-min Rain = 0
KPA1 011300Z 32004KT M04/M09 A3031 RMK A01 T10381085  RH  070%=      5-min Rain = 0
KPA1 011301Z 32005KT M04/M09 A3031 RMK A01 T10381085  RH  070%=      5-min Rain = 0
KPA1 011302Z 32004KT M04/M09 A3031 RMK A01 T10381085  RH  070%=      5-min Rain = 0
KPA1 011303Z 32004KT M04/M09 A3031 RMK A01 T10391085  RH  070%=      5-min Rain = 0
KPA1 011304Z 32005KT M04/M09 A3031 RMK A01 T10391086  RH  070%=      5-min Rain = 0
KPA1 011305Z 32005KT M04/M09 A3031 RMK A01 T10391086  RH  070%=      5-min Rain = 0
KPA1 011306Z 32005KT M04/M09 A3031 RMK A01 T10391087  RH  070%=      5-min Rain = 0
KPA1 011307Z 32005KT M04/M09 A3031 RMK A01 T10391087  RH  069%=      5-min Rain = 0
KPA1 011308Z 32004KT M04/M09 A3031 RMK A01 T10391088  RH  069%=      5-min Rain = 0
KPA1 011309Z 32004KT M04/M09 A3031 RMK A01 T10401088  RH  069%=      5-min Rain = 0
KPA1 011310Z 32004KT M04/M09 A3031 RMK A01 T10401088  RH  069%=      5-min Rain = 0
KPA1 011311Z 32004KT M04/M09 A3031 RMK A01 T10401088  RH  069%=      5-min Rain = 0
KPA1 011312Z 32004KT M04/M09 A3031 RMK A01 T10411088  RH  070%=      5-min Rain = 0
KPA1 011313Z 32005KT M04/M09 A3031 RMK A01 T10421088  RH  070%=      5-min Rain = 0
KPA1 011314Z 32005KT M04/M09 A3031 RMK A01 T10421088  RH  070%=      5-min Rain = 0
KPA1 011315Z 32004KT M04/M09 A3031 RMK A01 T10421088  RH  070%=      5-min Rain = 0
KPA1 011316Z 32005KT M04/M09 A3031 RMK A01 T10421088  RH  070%=      5-min Rain = 0
KPA1 011317Z 33004KT M04/M09 A3031 RMK A01 T10421088  RH  070%=      5-min Rain = 0
KPA1 011318Z 33004KT M04/M09 A3031 RMK A01 T10421088  RH  070%=      5-min Rain = 0
KPA1 011319Z 33004KT M04/M09 A3031 RMK A01 T10431088  RH  071%=      5-min Rain = 0
KPA1 011320Z 33005KT M04/M09 A3031 RMK A01 T10431088  RH  071%=      5-min Rain = 0
KPA1 011321Z 33005KT M04/M09 A3031 RMK A01 T10441088  RH  071%=      5-min Rain = 0
KPA1 011322Z 33005KT M04/M09 A3031 RMK A01 T10441088  RH  071%=      5-min Rain = 0
KPA1 011323Z 33005KT M04/M09 A3031 RMK A01 T10441088  RH  071%=      5-min Rain = 0
KPA1 011324Z 33005KT M04/M09 A3031 RMK A01 T10441088  RH  071%=      5-min Rain = 0
KPA1 011325Z 33005KT M04/M09 A3031 RMK A01 T10431087  RH  071%=      5-min Rain = 0
KPA1 011326Z 33005KT M04/M09 A3031 RMK A01 T10431088  RH  071%=      5-min Rain = 0
KPA1 011327Z 33005KT M04/M09 A3031 RMK A01 T10431087  RH  071%=      5-min Rain = 0
KPA1 011328Z 33005KT M04/M09 A3031 RMK A01 T10431087  RH  071%=      5-min Rain = 0
KPA1 011329Z 33005KT M04/M09 A3031 RMK A01 T10431087  RH  071%=      5-min Rain = 0
KPA1 011330Z 33005KT M04/M09 A3031 RMK A01 T10431087  RH  071%=      5-min Rain = 0
KPA1 011331Z 33005KT M04/M09 A3031 RMK A01 T10431087  RH  071%=      5-min Rain = 0
KPA1 011332Z 33005KT M04/M09 A3032 RMK A01 T10431087  RH  071%=      5-min Rain = 0
KPA1 011333Z 33005KT M04/M09 A3032 RMK A01 T10431087  RH  071%=      5-min Rain = 0
KPA1 011334Z 33006KT M04/M09 A3032 RMK A01 T10431087  RH  072%=      5-min Rain = 0
KPA1 011335Z 33006KT M04/M09 A3032 RMK A01 T10431087  RH  071%=      5-min Rain = 0
KPA1 011336Z 33005KT M04/M09 A3032 RMK A01 T10421087  RH  071%=      5-min Rain = 0
KPA1 011337Z 33005KT M04/M09 A3032 RMK A01 T10421087  RH  071%=      5-min Rain = 0
KPA1 011338Z 33005KT M04/M09 A3032 RMK A01 T10421086  RH  071%=      5-min Rain = 0
KPA1 011339Z 33005KT M04/M09 A3032 RMK A01 T10411086  RH  071%=      5-min Rain = 0
KPA1 011340Z 33006KT M04/M09 A3032 RMK A01 T10401086  RH  071%=      5-min Rain = 0
KPA1 011341Z 33006KT M04/M09 A3032 RMK A01 T10401086  RH  070%=      5-min Rain = 0
KPA1 011342Z 33006KT M04/M09 A3032 RMK A01 T10401086  RH  070%=      5-min Rain = 0
KPA1 011343Z 33006KT M04/M09 A3032 RMK A01 T10401086  RH  070%=      5-min Rain = 0
KPA1 011344Z 33006KT M04/M09 A3032 RMK A01 T10401086  RH  070%=      5-min Rain = 0
KPA1 011345Z 33006KT M04/M09 A3032 RMK A01 T10401086  RH  070%=      5-min Rain = 0
KPA1 011346Z 33005KT M04/M09 A3032 RMK A01 T10401086  RH  070%=      5-min Rain = 0
KPA1 011347Z 32005KT M04/M09 A3032 RMK A01 T10391086  RH  070%=      5-min Rain = 0
KPA1 011348Z 32005KT M04/M09 A3032 RMK A01 T10391086  RH  070%=      5-min Rain = 0
KPA1 011349Z 32005KT M04/M09 A3032 RMK A01 T10391085  RH  070%=      5-min Rain = 0
KPA1 011350Z 32005KT M04/M09 A3032 RMK A01 T10401086  RH  070%=      5-min Rain = 0
KPA1 011351Z 32005KT M04/M09 A3032 RMK A01 T10401087  RH  070%=      5-min Rain = 0
KPA1 011352Z 32005KT M04/M09 A3032 RMK A01 T10411087  RH  070%=      5-min Rain = 0
KPA1 011353Z 32006KT M04/M09 A3032 RMK A01 T10411086  RH  071%=      5-min Rain = 0
KPA1 011354Z 32006KT M04/M09 A3032 RMK A01 T10401086  RH  071%=      5-min Rain = 0
KPA1 011355Z 32005KT M04/M09 A3032 RMK A01 T10401086  RH  071%=      5-min Rain = 0
KPA1 011356Z 32005KT M04/M09 A3032 RMK A01 T10401087  RH  070%=      5-min Rain = 0
KPA1 011357Z 32004KT M04/M09 A3032 RMK A01 T10411087  RH  070%=      5-min Rain = 0
KPA1 011358Z 32004KT M04/M09 A3033 RMK A01 T10411087  RH  070%=      5-min Rain = 0
KPA1 011359Z 32004KT M04/M09 A3033 RMK A01 T10411086  RH  071%=      5-min Rain = 0
KPA1 011400Z 32004KT M04/M09 A3033 RMK A01 T10411086  RH  071%=      5-min Rain = 0
KPA1 011401Z 32004KT M04/M09 A3033 RMK A01 T10411086  RH  071%=      5-min Rain = 0
KPA1 011402Z 32004KT M04/M09 A3033 RMK A01 T10401085  RH  071%=      5-min Rain = 0
KPA1 011403Z 31004KT M04/M09 A3033 RMK A01 T10401085  RH  071%=      5-min Rain = 0
KPA1 011404Z 31003KT M04/M09 A3033 RMK A01 T10391085  RH  070%=      5-min Rain = 0
KPA1 011405Z 31004KT M04/M08 A3033 RMK A01 T10391084  RH  071%=      5-min Rain = 0
KPA1 011406Z 31003KT M04/M08 A3033 RMK A01 T10381084  RH  070%=      5-min Rain = 0
KPA1 011407Z 31004KT M04/M08 A3033 RMK A01 T10371084  RH  070%=      5-min Rain = 0
KPA1 011408Z 31004KT M04/M08 A3033 RMK A01 T10371084  RH  070%=      5-min Rain = 0
KPA1 011409Z 32004KT M04/M08 A3033 RMK A01 T10361084  RH  069%=      5-min Rain = 0
KPA1 011410Z 32004KT M04/M08 A3034 RMK A01 T10361084  RH  069%=      5-min Rain = 0
KPA1 011411Z 31004KT M04/M08 A3034 RMK A01 T10351084  RH  069%=      5-min Rain = 0
KPA1 011412Z 31005KT M04/M08 A3034 RMK A01 T10351083  RH  069%=      5-min Rain = 0
KPA1 011413Z 31004KT M03/M08 A3034 RMK A01 T10341083  RH  069%=      5-min Rain = 0
KPA1 011414Z 31005KT M03/M08 A3034 RMK A01 T10341083  RH  069%=      5-min Rain = 0
KPA1 011415Z 31004KT M03/M08 A3034 RMK A01 T10331083  RH  068%=      5-min Rain = 0
KPA1 011416Z 30004KT M03/M08 A3034 RMK A01 T10331083  RH  068%=      5-min Rain = 0
KPA1 011417Z 29004KT M03/M08 A3034 RMK A01 T10331083  RH  068%=      5-min Rain = 0
KPA1 011418Z 30004KT M03/M08 A3034 RMK A01 T10321082  RH  069%=      5-min Rain = 0
KPA1 011419Z 29003KT M03/M08 A3035 RMK A01 T10321081  RH  069%=      5-min Rain = 0
KPA1 011420Z 29004KT M03/M08 A3035 RMK A01 T10321081  RH  069%=      5-min Rain = 0
KPA1 011421Z 30003KT M03/M08 A3035 RMK A01 T10331082  RH  069%=      5-min Rain = 0
KPA1 011422Z 30003KT M03/M08 A3035 RMK A01 T10331082  RH  069%=      5-min Rain = 0
KPA1 011423Z 30003KT M03/M08 A3035 RMK A01 T10331081  RH  069%=      5-min Rain = 0
KPA1 011424Z 30004KT M03/M08 A3035 RMK A01 T10321082  RH  069%=      5-min Rain = 0
KPA1 011425Z 30004KT M03/M08 A3035 RMK A01 T10321083  RH  068%=      5-min Rain = 0
KPA1 011426Z 30004KT M03/M08 A3035 RMK A01 T10321083  RH  068%=      5-min Rain = 0
KPA1 011427Z 30004KT M03/M08 A3035 RMK A01 T10311083  RH  068%=      5-min Rain = 0
KPA1 011428Z 30004KT M03/M08 A3035 RMK A01 T10301082  RH  068%=      5-min Rain = 0
KPA1 011429Z 30005KT M03/M08 A3035 RMK A01 T10301082  RH  067%=      5-min Rain = 0
KPA1 011430Z 29004KT M03/M08 A3035 RMK A01 T10301082  RH  067%=      5-min Rain = 0
KPA1 011431Z 29005KT M03/M08 A3035 RMK A01 T10281080  RH  067%=      5-min Rain = 0
KPA1 011432Z 29004KT M03/M08 A3036 RMK A01 T10281082  RH  066%=      5-min Rain = 0
KPA1 011433Z 29005KT M03/M08 A3036 RMK A01 T10271081  RH  067%=      5-min Rain = 0
KPA1 011434Z 30005KT M03/M08 A3036 RMK A01 T10271081  RH  066%=      5-min Rain = 0
KPA1 011435Z 29004KT M03/M08 A3036 RMK A01 T10261081  RH  066%=      5-min Rain = 0
KPA1 011436Z 29005KT M03/M08 A3036 RMK A01 T10251080  RH  066%=      5-min Rain = 0
KPA1 011437Z 30006KT M02/M08 A3036 RMK A01 T10241080  RH  066%=      5-min Rain = 0
KPA1 011438Z 30005KT M02/M08 A3036 RMK A01 T10231080  RH  065%=      5-min Rain = 0
KPA1 011439Z 31005KT M02/M08 A3036 RMK A01 T10231079  RH  065%=      5-min Rain = 0
KPA1 011440Z 30006KT M02/M08 A3036 RMK A01 T10221080  RH  065%=      5-min Rain = 0
KPA1 011441Z 30005KT M02/M08 A3036 RMK A01 T10221081  RH  064%=      5-min Rain = 0
KPA1 011442Z 30006KT M02/M08 A3036 RMK A01 T10211079  RH  065%=      5-min Rain = 0
KPA1 011443Z 30005KT M02/M08 A3036 RMK A01 T10191079  RH  064%=      5-min Rain = 0
KPA1 011444Z 30005KT M02/M08 A3036 RMK A01 T10201080  RH  063%=      5-min Rain = 0
KPA1 011445Z 30004KT M02/M08 A3036 RMK A01 T10181078  RH  064%=      5-min Rain = 0
KPA1 011446Z 30005KT M02/M08 A3036 RMK A01 T10181078  RH  064%=      5-min Rain = 0
KPA1 011447Z 30005KT M02/M08 A3036 RMK A01 T10181079  RH  063%=      5-min Rain = 0
KPA1 011448Z 30005KT M02/M08 A3036 RMK A01 T10171079  RH  063%=      5-min Rain = 0
KPA1 011449Z 30006KT M02/M08 A3036 RMK A01 T10171079  RH  063%=      5-min Rain = 0
KPA1 011450Z 30006KT M02/M08 A3036 RMK A01 T10171079  RH  063%=      5-min Rain = 0
KPA1 011451Z 30006KT M02/M08 A3036 RMK A01 T10171079  RH  063%=      5-min Rain = 0
KPA1 011452Z 30005KT M02/M08 A3036 RMK A01 T10171080  RH  062%=      5-min Rain = 0
KPA1 011453Z 30006KT M02/M08 A3037 RMK A01 T10171080  RH  062%=      5-min Rain = 0
KPA1 011454Z 29006KT M02/M08 A3037 RMK A01 T10171080  RH  062%=      5-min Rain = 0
KPA1 011455Z 29006KT M02/M08 A3037 RMK A01 T10171080  RH  062%=      5-min Rain = 0
KPA1 011456Z 29006KT M02/M08 A3037 RMK A01 T10171079  RH  063%=      5-min Rain = 0
KPA1 011457Z 29006KT M02/M08 A3037 RMK A01 T10161079  RH  062%=      5-min Rain = 0
KPA1 011458Z 30007KT M02/M08 A3037 RMK A01 T10161080  RH  062%=      5-min Rain = 0
KPA1 011459Z 30006KT M02/M08 A3037 RMK A01 T10161080  RH  062%=      5-min Rain = 0
KPA1 011500Z 30006KT M01/M08 A3037 RMK A01 T10131075  RH  062%=      5-min Rain = 0
KPA1 011501Z 30007KT M01/M08 A3037 RMK A01 T10111076  RH  061%=      5-min Rain = 0
KPA1 011502Z 30007KT M01/M08 A3037 RMK A01 T10111079  RH  060%=      5-min Rain = 0
KPA1 011503Z 31007KT M01/M08 A3037 RMK A01 T10111079  RH  060%=      5-min Rain = 0
KPA1 011504Z 30007KT M01/M08 A3037 RMK A01 T10091076  RH  060%=      5-min Rain = 0
KPA1 011505Z 30007KT M01/M08 A3037 RMK A01 T10081077  RH  059%=      5-min Rain = 0
KPA1 011506Z 30007KT M01/M08 A3037 RMK A01 T10081078  RH  059%=      5-min Rain = 0
KPA1 011507Z 30007KT M01/M08 A3037 RMK A01 T10071076  RH  059%=      5-min Rain = 0
KPA1 011508Z 31007KT M01/M08 A3037 RMK A01 T10061077  RH  058%=      5-min Rain = 0
KPA1 011509Z 31007KT M00/M08 A3037 RMK A01 T10041075  RH  059%=      5-min Rain = 0
KPA1 011510Z 30007KT M00/M07 A3037 RMK A01 T10011073  RH  058%=      5-min Rain = 0
KPA1 011511Z 29007KT M00/M08 A3037 RMK A01 T10011075  RH  057%=      5-min Rain = 0
KPA1 011512Z 30007KT M00/M08 A3037 RMK A01 T10011076  RH  057%=      5-min Rain = 0
KPA1 011513Z 30006KT 00/07 A3037 RMK A01 T00-00-74  RH  058%=      5-min Rain = 0
KPA1 011514Z 30007KT 00/M07 A3037 RMK A01 T00021074  RH  057%=      5-min Rain = 0
KPA1 011515Z 30006KT 00/M08 A3037 RMK A01 T00021076  RH  056%=      5-min Rain = 0
KPA1 011516Z 29007KT 00/M08 A3037 RMK A01 T00011076  RH  056%=      5-min Rain = 0
KPA1 011517Z 30007KT 00/M07 A3037 RMK A01 T00031073  RH  056%=      5-min Rain = 0
KPA1 011518Z 30006KT 00/M07 A3037 RMK A01 T00041074  RH  056%=      5-min Rain = 0
KPA1 011519Z 29007KT 00/M07 A3037 RMK A01 T00041074  RH  056%=      5-min Rain = 0
KPA1 011520Z 30007KT 00/M08 A3037 RMK A01 T00041076  RH  055%=      5-min Rain = 0
KPA1 011521Z 31008KT 01/M07 A3037 RMK A01 T00061073  RH  055%=      5-min Rain = 0
KPA1 011522Z 31007KT 01/M07 A3037 RMK A01 T00081073  RH  055%=      5-min Rain = 0
KPA1 011523Z 31007KT 01/M08 A3038 RMK A01 T00081075  RH  054%=      5-min Rain = 0
KPA1 011524Z 31006KT 01/M08 A3038 RMK A01 T00081075  RH  054%=      5-min Rain = 0
KPA1 011525Z 31007KT 01/M08 A3038 RMK A01 T00091075  RH  054%=      5-min Rain = 0
KPA1 011526Z 30007KT 01/M08 A3038 RMK A01 T00091075  RH  053%=      5-min Rain = 0
KPA1 011527Z 30006KT 01/M07 A3038 RMK A01 T00111071  RH  054%=      5-min Rain = 0
KPA1 011528Z 30006KT 01/M07 A3038 RMK A01 T00131072  RH  053%=      5-min Rain = 0
KPA1 011529Z 30006KT 01/M07 A3038 RMK A01 T00121074  RH  052%=      5-min Rain = 0
KPA1 011530Z 30006KT 01/M07 A3038 RMK A01 T00111074  RH  053%=      5-min Rain = 0
KPA1 011531Z 30007KT 01/M07 A3038 RMK A01 T00141071  RH  053%=      5-min Rain = 0
KPA1 011532Z 30007KT 02/M07 A3038 RMK A01 T00151071  RH  053%=      5-min Rain = 0
KPA1 011533Z 30006KT 02/M07 A3038 RMK A01 T00161071  RH  053%=      5-min Rain = 0
KPA1 011534Z 31006KT 02/M07 A3038 RMK A01 T00161071  RH  052%=      5-min Rain = 0
KPA1 011535Z 30007KT 02/M07 A3038 RMK A01 T00161071  RH  052%=      5-min Rain = 0
KPA1 011536Z 30007KT 02/M07 A3038 RMK A01 T00161073  RH  052%=      5-min Rain = 0
KPA1 011537Z 31007KT 02/M07 A3038 RMK A01 T00171072  RH  052%=      5-min Rain = 0
KPA1 011538Z 31006KT 02/M07 A3038 RMK A01 T00181070  RH  052%=      5-min Rain = 0
KPA1 011539Z 30006KT 02/M07 A3038 RMK A01 T00201070  RH  051%=      5-min Rain = 0
KPA1 011540Z 32005KT 02/M07 A3038 RMK A01 T00211073  RH  050%=      5-min Rain = 0
KPA1 011541Z 33006KT 02/M08 A3038 RMK A01 T00211075  RH  049%=      5-min Rain = 0
KPA1 011542Z 32005KT 02/M08 A3038 RMK A01 T00211075  RH  049%=      5-min Rain = 0
KPA1 011543Z 33008KT 02/M07 A3038 RMK A01 T00231073  RH  049%=      5-min Rain = 0
KPA1 011544Z 33007KT 02/M08 A3038 RMK A01 T00231075  RH  048%=      5-min Rain = 0
KPA1 011545Z 33009KT 02/M08 A3038 RMK A01 T00231076  RH  048%=      5-min Rain = 0
KPA1 011546Z 31007KT 02/M08 A3038 RMK A01 T00231076  RH  048%=      5-min Rain = 0
KPA1 011547Z 32008KT 02/M07 A3038 RMK A01 T00231074  RH  049%=      5-min Rain = 0
KPA1 011548Z 31009KT 03/M07 A3038 RMK A01 T00251072  RH  049%=      5-min Rain = 0
KPA1 011549Z 31008KT 02/M08 A3038 RMK A01 T00241075  RH  048%=      5-min Rain = 0
KPA1 011550Z 33008KT 02/M08 A3038 RMK A01 T00231075  RH  048%=      5-min Rain = 0
KPA1 011551Z 34008KT 02/M07 A3038 RMK A01 T00241074  RH  048%=      5-min Rain = 0
KPA1 011552Z 33007KT 03/M08 A3038 RMK A01 T00261075  RH  047%=      5-min Rain = 0
KPA1 011553Z 32008KT 03/M08 A3039 RMK A01 T00261076  RH  047%=      5-min Rain = 0
KPA1 011554Z 31006KT 03/M08 A3039 RMK A01 T00251076  RH  047%=      5-min Rain = 0
KPA1 011555Z 34007KT 02/M08 A3039 RMK A01 T00241075  RH  048%=      5-min Rain = 0
KPA1 011556Z 33005KT 02/M08 A3039 RMK A01 T00241078  RH  047%=      5-min Rain = 0
KPA1 011557Z 33006KT 03/M08 A3039 RMK A01 T00261076  RH  047%=      5-min Rain = 0
KPA1 011558Z 34006KT 03/M08 A3039 RMK A01 T00261078  RH  046%=      5-min Rain = 0
KPA1 011559Z 33006KT 03/M08 A3039 RMK A01 T00261081  RH  045%=      5-min Rain = 0
KPA1 011600Z 32006KT 03/M08 A3039 RMK A01 T00251079  RH  046%=      5-min Rain = 0
KPA1 011601Z 32005KT 03/M08 A3039 RMK A01 T00251077  RH  047%=      5-min Rain = 0
KPA1 011602Z 31006KT 03/M08 A3039 RMK A01 T00271076  RH  047%=      5-min Rain = 0
KPA1 011603Z 30006KT 03/M08 A3039 RMK A01 T00271077  RH  046%=      5-min Rain = 0
KPA1 011604Z 33007KT 03/M08 A3039 RMK A01 T00271076  RH  047%=      5-min Rain = 0
KPA1 011605Z 32007KT 03/M08 A3039 RMK A01 T00281077  RH  046%=      5-min Rain = 0
KPA1 011606Z 31006KT 03/M08 A3039 RMK A01 T00281077  RH  046%=      5-min Rain = 0
KPA1 011607Z 31005KT 03/M08 A3039 RMK A01 T00281078  RH  046%=      5-min Rain = 0
KPA1 011608Z 31006KT 03/M08 A3039 RMK A01 T00271077  RH  046%=      5-min Rain = 0
KPA1 011609Z 30006KT 03/M08 A3039 RMK A01 T00281077  RH  046%=      5-min Rain = 0
KPA1 011610Z 32008KT 03/M07 A3039 RMK A01 T00311074  RH  046%=      5-min Rain = 0
KPA1 011611Z 34006KT 03/M08 A3039 RMK A01 T00341075  RH  045%=      5-min Rain = 0
KPA1 011612Z 33007KT 04/M08 A3039 RMK A01 T00351076  RH  044%=      5-min Rain = 0
KPA1 011613Z 33007KT 03/M08 A3039 RMK A01 T00331081  RH  043%=      5-min Rain = 0
KPA1 011614Z 33005KT 03/M08 A3039 RMK A01 T00331080  RH  043%=      5-min Rain = 0
KPA1 011615Z 33008KT 03/M08 A3039 RMK A01 T00341078  RH  044%=      5-min Rain = 0
KPA1 011616Z 33007KT 04/M08 A3039 RMK A01 T00351080  RH  043%=      5-min Rain = 0
KPA1 011617Z 33006KT 04/M08 A3039 RMK A01 T00361079  RH  043%=      5-min Rain = 0
KPA1 011618Z 34006KT 04/M08 A3039 RMK A01 T00361079  RH  043%=      5-min Rain = 0
KPA1 011619Z 32004KT 04/M08 A3039 RMK A01 T00351079  RH  043%=      5-min Rain = 0
KPA1 011620Z 34006KT 04/M08 A3039 RMK A01 T00361077  RH  043%=      5-min Rain = 0
KPA1 011621Z 33006KT 04/M08 A3039 RMK A01 T00381078  RH  042%=      5-min Rain = 0
KPA1 011622Z 34005KT 04/M08 A3039 RMK A01 T00391081  RH  041%=      5-min Rain = 0
KPA1 011623Z 33006KT 04/M08 A3039 RMK A01 T00381084  RH  041%=      5-min Rain = 0
KPA1 011624Z 33006KT 04/M08 A3039 RMK A01 T00371083  RH  041%=      5-min Rain = 0
KPA1 011625Z 32005KT 04/M08 A3039 RMK A01 T00381083  RH  041%=      5-min Rain = 0
KPA1 011626Z 35007KT 04/M08 A3039 RMK A01 T00391083  RH  041%=      5-min Rain = 0
KPA1 011627Z 33008KT 04/M09 A3039 RMK A01 T00411085  RH  039%=      5-min Rain = 0
KPA1 011628Z 36007KT 04/M09 A3039 RMK A01 T00431087  RH  038%=      5-min Rain = 0
KPA1 011629Z 00005KT 04/M09 A3039 RMK A01 T00431090  RH  037%=      5-min Rain = 0
KPA1 011630Z 35005KT 04/M09 A3039 RMK A01 T00431087  RH  038%=      5-min Rain = 0
KPA1 011631Z 34007KT 04/M08 A3039 RMK A01 T00441084  RH  039%=      5-min Rain = 0
KPA1 011632Z 33005KT 04/M09 A3039 RMK A01 T00441085  RH  038%=      5-min Rain = 0
KPA1 011633Z 34007KT 04/M09 A3039 RMK A01 T00441085  RH  039%=      5-min Rain = 0
KPA1 011634Z 33008KT 05/M08 A3039 RMK A01 T00461084  RH  038%=      5-min Rain = 0
KPA1 011635Z 34006KT 05/M09 A3039 RMK A01 T00461086  RH  038%=      5-min Rain = 0
KPA1 011636Z 34007KT 05/M09 A3039 RMK A01 T00451085  RH  038%=      5-min Rain = 0
KPA1 011637Z 35006KT 05/M09 A3039 RMK A01 T00451086  RH  038%=      5-min Rain = 0
KPA1 011638Z 33005KT 04/M08 A3039 RMK A01 T00441083  RH  039%=      5-min Rain = 0
KPA1 011639Z 32006KT 05/M08 A3039 RMK A01 T00451083  RH  039%=      5-min Rain = 0
KPA1 011640Z 34007KT 05/M08 A3039 RMK A01 T00471082  RH  038%=      5-min Rain = 0
KPA1 011641Z 35006KT 05/M09 A3039 RMK A01 T00481087  RH  037%=      5-min Rain = 0
KPA1 011642Z 35006KT 05/M09 A3039 RMK A01 T00501085  RH  037%=      5-min Rain = 0
KPA1 011643Z 35006KT 05/M09 A3039 RMK A01 T00521086  RH  036%=      5-min Rain = 0
KPA1 011644Z 34006KT 05/M09 A3039 RMK A01 T00511088  RH  036%=      5-min Rain = 0
KPA1 011645Z 34008KT 05/M09 A3039 RMK A01 T00531087  RH  036%=      5-min Rain = 0
KPA1 011646Z 35008KT 05/M09 A3039 RMK A01 T00521091  RH  035%=      5-min Rain = 0
KPA1 011647Z 34006KT 05/M09 A3039 RMK A01 T00521090  RH  035%=      5-min Rain = 0
KPA1 011648Z 33005KT 05/M09 A3039 RMK A01 T00521089  RH  035%=      5-min Rain = 0
KPA1 011649Z 00007KT 05/M09 A3039 RMK A01 T00531090  RH  035%=      5-min Rain = 0
KPA1 011650Z 01007KT 05/M09 A3039 RMK A01 T00531092  RH  034%=      5-min Rain = 0
KPA1 011651Z 35007KT 05/M09 A3039 RMK A01 T00531092  RH  034%=      5-min Rain = 0
KPA1 011652Z 33008KT 05/M09 A3039 RMK A01 T00531093  RH  034%=      5-min Rain = 0
KPA1 011653Z 32006KT 05/M10 A3039 RMK A01 T00511097  RH  034%=      5-min Rain = 0
KPA1 011654Z 34006KT 05/M10 A3039 RMK A01 T00501095  RH  034%=      5-min Rain = 0
KPA1 011655Z 34007KT 05/M09 A3039 RMK A01 T00511093  RH  035%=      5-min Rain = 0
KPA1 011656Z 35008KT 05/M09 A3039 RMK A01 T00531094  RH  034%=      5-min Rain = 0
KPA1 011657Z 01007KT 05/M10 A3039 RMK A01 T00531095  RH  034%=      5-min Rain = 0
KPA1 011658Z 00009KT 05/M09 A3039 RMK A01 T00531093  RH  034%=      5-min Rain = 0
KPA1 011659Z 36008KT 05/M09 A3039 RMK A01 T00541090  RH  035%=      5-min Rain = 0
KPA1 011700Z 33007KT 05/M09 A3039 RMK A01 T00531090  RH  035%=      5-min Rain = 0
KPA1 011701Z 33008KT 05/M09 A3039 RMK A01 T00531091  RH  035%=      5-min Rain = 0
KPA1 011702Z 33005KT 05/M09 A3039 RMK A01 T00531092  RH  034%=      5-min Rain = 0
KPA1 011703Z 33008KT 05/M09 A3039 RMK A01 T00541089  RH  035%=      5-min Rain = 0
KPA1 011704Z 34008KT 06/M09 A3039 RMK A01 T00571092  RH  033%=      5-min Rain = 0
KPA1 011705Z 01009KT 06/M09 A3039 RMK A01 T00581093  RH  033%=      5-min Rain = 0
KPA1 011706Z 01008KT 06/M10 A3039 RMK A01 T00581097  RH  032%=      5-min Rain = 0
KPA1 011707Z 35007KT 06/M10 A3039 RMK A01 T00581096  RH  032%=      5-min Rain = 0
KPA1 011708Z 35008KT 06/M09 A3039 RMK A01 T00601093  RH  032%=      5-min Rain = 0
KPA1 011709Z 33008G13KT 06/M09 A3039 RMK A01 T00621093  RH  032%=      5-min Rain = 0
KPA1 011710Z 35008KT 06/M10 A3039 RMK A01 T00621096  RH  031%=      5-min Rain = 0
KPA1 011711Z 36005KT 06/M10 A304 RMK A01 T00591101  RH  031%=      5-min Rain = 0
KPA1 011712Z 36009KT 06/M10 A304 RMK A01 T00571101  RH  031%=      5-min Rain = 0
KPA1 011713Z 35009KT 06/M10 A304 RMK A01 T00571102  RH  031%=      5-min Rain = 0
KPA1 011714Z 35009KT 06/M10 A304 RMK A01 T00591099  RH  031%=      5-min Rain = 0
KPA1 011715Z 36010KT 06/M10 A304 RMK A01 T00611099  RH  031%=      5-min Rain = 0
KPA1 011716Z 35009KT 06/M10 A304 RMK A01 T00611101  RH  030%=      5-min Rain = 0
KPA1 011717Z 34009KT 06/M10 A304 RMK A01 T00601099  RH  031%=      5-min Rain = 0
KPA1 011718Z 33009KT 06/M10 A304 RMK A01 T00611097  RH  031%=      5-min Rain = 0
KPA1 011719Z 33006KT 06/M10 A304 RMK A01 T00591101  RH  031%=      5-min Rain = 0
KPA1 011720Z 34008KT 06/M10 A304 RMK A01 T00611095  RH  032%=      5-min Rain = 0
KPA1 011721Z 33009KT 06/M10 A304 RMK A01 T00641095  RH  031%=      5-min Rain = 0
KPA1 011722Z 33008KT 07/M09 A304 RMK A01 T00661094  RH  031%=      5-min Rain = 0
KPA1 011723Z 34007KT 07/M10 A304 RMK A01 T00661096  RH  031%=      5-min Rain = 0
KPA1 011724Z 36008G13KT 06/M10 A304 RMK A01 T00641096  RH  031%=      5-min Rain = 0
KPA1 011725Z 35009KT 07/M10 A304 RMK A01 T00651096  RH  030%=      5-min Rain = 0
KPA1 011726Z 36010KT 07/M10 A304 RMK A01 T00651098  RH  030%=      5-min Rain = 0
KPA1 011727Z 36010KT 06/M10 A304 RMK A01 T00641099  RH  030%=      5-min Rain = 0
KPA1 011728Z 36009KT 07/M10 A304 RMK A01 T00661099  RH  030%=      5-min Rain = 0
KPA1 011729Z 34011KT 07/M10 A304 RMK A01 T00681098  RH  029%=      5-min Rain = 0
KPA1 011730Z 34010KT 07/M10 A304 RMK A01 T00691098  RH  029%=      5-min Rain = 0
KPA1 011731Z 34007KT 07/M10 A304 RMK A01 T00701097  RH  029%=      5-min Rain = 0
KPA1 011732Z 35007KT 07/M10 A304 RMK A01 T00691098  RH  029%=      5-min Rain = 0
KPA1 011733Z 35008KT 07/M10 A304 RMK A01 T00691097  RH  030%=      5-min Rain = 0
KPA1 011734Z 34012KT 07/M10 A304 RMK A01 T00701098  RH  029%=      5-min Rain = 0
KPA1 011735Z 35010KT 07/M10 A304 RMK A01 T00721099  RH  028%=      5-min Rain = 0
KPA1 011736Z 00012KT 08/M10 A304 RMK A01 T00771098  RH  028%=      5-min Rain = 0
KPA1 011737Z 01011KT 07/M11 A304 RMK A01 T00721111  RH  026%=      5-min Rain = 0
KPA1 011738Z 00009KT 07/M11 A304 RMK A01 T00691114  RH  026%=      5-min Rain = 0
KPA1 011739Z 02009KT 07/M11 A304 RMK A01 T00681111  RH  027%=      5-min Rain = 0
KPA1 011740Z 01009KT 07/M11 A304 RMK A01 T00691108  RH  027%=      5-min Rain = 0
KPA1 011741Z 00007KT 07/M11 A304 RMK A01 T00691106  RH  027%=      5-min Rain = 0
KPA1 011742Z 00010KT 07/M10 A304 RMK A01 T00701102  RH  028%=      5-min Rain = 0
KPA1 011743Z 00010KT 07/M10 A304 RMK A01 T00741100  RH  028%=      5-min Rain = 0
KPA1 011744Z 35009KT 08/M10 A304 RMK A01 T00751101  RH  027%=      5-min Rain = 0
KPA1 011745Z 34007KT 08/M10 A304 RMK A01 T00751103  RH  027%=      5-min Rain = 0
KPA1 011746Z 35007KT 07/M10 A304 RMK A01 T00731103  RH  027%=      5-min Rain = 0
KPA1 011747Z 34005KT 07/M10 A304 RMK A01 T00741100  RH  028%=      5-min Rain = 0
KPA1 011748Z 35008KT 08/M10 A304 RMK A01 T00761097  RH  028%=      5-min Rain = 0
KPA1 011749Z 35008KT 08/M10 A304 RMK A01 T00771099  RH  028%=      5-min Rain = 0
KPA1 011750Z 33009KT 08/M10 A304 RMK A01 T00761100  RH  027%=      5-min Rain = 0
KPA1 011751Z 34013KT 08/M10 A304 RMK A01 T00761102  RH  027%=      5-min Rain = 0
KPA1 011752Z 33010KT 07/M11 A304 RMK A01 T00741106  RH  027%=      5-min Rain = 0
KPA1 011753Z 33011KT 07/M10 A304 RMK A01 T00731104  RH  027%=      5-min Rain = 0
KPA1 011754Z 36012KT 08/M10 A304 RMK A01 T00761100  RH  027%=      5-min Rain = 0
KPA1 011755Z 00009KT 08/M10 A3041 RMK A01 T00771102  RH  027%=      5-min Rain = 0
KPA1 011756Z 00009KT 07/M11 A3041 RMK A01 T00731106  RH  027%=      5-min Rain = 0
KPA1 011757Z 01008KT 07/M11 A3041 RMK A01 T00731106  RH  027%=      5-min Rain = 0
KPA1 011758Z 02011KT 08/M10 A3041 RMK A01 T00761103  RH  027%=      5-min Rain = 0
KPA1 011759Z 01005KT 08/M11 A3041 RMK A01 T00771107  RH  026%=      5-min Rain = 0
KPA1 011800Z 02008KT 08/M10 A3041 RMK A01 T00761104  RH  026%=      5-min Rain = 0
KPA1 011801Z 02009G14KT 08/M12 A3041 RMK A01 T00781118  RH  024%=      5-min Rain = 0
KPA1 011802Z 01013KT 08/M12 A3041 RMK A01 T00781119  RH  023%=      5-min Rain = 0
KPA1 011803Z 36010KT 08/M12 A3041 RMK A01 T00771119  RH  023%=      5-min Rain = 0
KPA1 011804Z 35009KT 08/M12 A3041 RMK A01 T00781118  RH  024%=      5-min Rain = 0
KPA1 011805Z 02007KT 08/M12 A3041 RMK A01 T00791117  RH  024%=      5-min Rain = 0
KPA1 011806Z 36006KT 08/M11 A3041 RMK A01 T00781113  RH  024%=      5-min Rain = 0
KPA1 011807Z 00008KT 08/M11 A3041 RMK A01 T00791113  RH  024%=      5-min Rain = 0
KPA1 011808Z 01009KT 08/M12 A3041 RMK A01 T00801119  RH  023%=      5-min Rain = 0
KPA1 011809Z 01011G16KT 08/M12 A304 RMK A01 T00781122  RH  023%=      5-min Rain = 0
KPA1 011810Z 03012KT 08/M12 A3041 RMK A01 T00801124  RH  022%=      5-min Rain = 0
KPA1 011811Z 03008KT 08/M13 A304 RMK A01 T00801128  RH  021%=      5-min Rain = 0
KPA1 011812Z 03006KT 08/M13 A304 RMK A01 T00801131  RH  021%=      5-min Rain = 0
KPA1 011813Z 36010G15KT 08/M13 A304 RMK A01 T00811127  RH  021%=      5-min Rain = 0
KPA1 011814Z 35010KT 08/M12 A304 RMK A01 T00811120  RH  023%=      5-min Rain = 0
KPA1 011815Z 02010KT 08/M12 A304 RMK A01 T00821117  RH  023%=      5-min Rain = 0
KPA1 011816Z 03009KT 08/M12 A304 RMK A01 T00831120  RH  022%=      5-min Rain = 0
KPA1 011817Z 03011G16KT 08/M12 A304 RMK A01 T00831124  RH  022%=      5-min Rain = 0
KPA1 011818Z 02014KT 08/M13 A304 RMK A01 T00831129  RH  021%=      5-min Rain = 0
KPA1 011819Z 02011KT 09/M13 A304 RMK A01 T00851129  RH  021%=      5-min Rain = 0
KPA1 011820Z 00011KT 08/M13 A304 RMK A01 T00831134  RH  020%=      5-min Rain = 0
KPA1 011821Z 36006KT 08/M14 A304 RMK A01 T00801143  RH  019%=      5-min Rain = 0
KPA1 011822Z 35007KT 08/M15 A304 RMK A01 T00801145  RH  019%=      5-min Rain = 0
KPA1 011823Z 34006KT 08/M15 A304 RMK A01 T00801149  RH  018%=      5-min Rain = 0
KPA1 011824Z 35009G18KT 08/M14 A304 RMK A01 T00791144  RH  019%=      5-min Rain = 0
KPA1 011825Z 36014KT 08/M14 A304 RMK A01 T00811135  RH  020%=      5-min Rain = 0
KPA1 011826Z 01014KT 08/M13 A304 RMK A01 T00841134  RH  020%=      5-min Rain = 0
KPA1 011827Z 02012KT 09/M14 A304 RMK A01 T00851137  RH  019%=      5-min Rain = 0
KPA1 011828Z 03006KT 08/M15 A304 RMK A01 T00811145  RH  018%=      5-min Rain = 0
KPA1 011829Z 04006KT 08/M15 A304 RMK A01 T00791146  RH  019%=      5-min Rain = 0
KPA1 011830Z 00006KT 08/M14 A304 RMK A01 T00791140  RH  020%=      5-min Rain = 0
KPA1 011831Z 04007KT 08/M13 A304 RMK A01 T00831134  RH  020%=      5-min Rain = 0
KPA1 011832Z 02008KT 09/M14 A304 RMK A01 T00851136  RH  019%=      5-min Rain = 0
KPA1 011833Z 03013KT 09/M14 A304 RMK A01 T00851139  RH  019%=      5-min Rain = 0
KPA1 011834Z 04013KT 09/M14 A304 RMK A01 T00851143  RH  018%=      5-min Rain = 0
KPA1 011835Z 03009KT 08/M15 A304 RMK A01 T00841150  RH  017%=      5-min Rain = 0
KPA1 011836Z 03006KT 08/M15 A304 RMK A01 T00811154  RH  017%=      5-min Rain = 0
KPA1 011837Z 02006KT 08/M14 A304 RMK A01 T00801144  RH  019%=      5-min Rain = 0
KPA1 011838Z 01006KT 08/M15 A304 RMK A01 T00821147  RH  018%=      5-min Rain = 0
KPA1 011839Z 01006KT 08/M14 A304 RMK A01 T00801144  RH  019%=      5-min Rain = 0
KPA1 011840Z 01008G13KT 08/M14 A304 RMK A01 T00801138  RH  020%=      5-min Rain = 0
KPA1 011841Z 33008KT 08/M13 A3039 RMK A01 T00831132  RH  020%=      5-min Rain = 0
KPA1 011842Z 01008G13KT 09/M13 A304 RMK A01 T00871132  RH  020%=      5-min Rain = 0
KPA1 011843Z 01013G18KT 09/M14 A304 RMK A01 T00881135  RH  019%=      5-min Rain = 0
KPA1 011844Z 01012KT 09/M14 A304 RMK A01 T00891137  RH  019%=      5-min Rain = 0
KPA1 011845Z 35011KT 09/M14 A3039 RMK A01 T00891141  RH  018%=      5-min Rain = 0
KPA1 011846Z 02009KT 09/M15 A304 RMK A01 T00881147  RH  017%=      5-min Rain = 0
KPA1 011847Z 04011KT 09/M15 A3039 RMK A01 T00901149  RH  017%=      5-min Rain = 0
KPA1 011848Z 05009KT 09/M16 A304 RMK A01 T00891158  RH  016%=      5-min Rain = 0
KPA1 011849Z 03007KT 08/M16 A3039 RMK A01 T00841159  RH  016%=      5-min Rain = 0
KPA1 011850Z 04011KT 09/M15 A304 RMK A01 T00851145  RH  018%=      5-min Rain = 0
KPA1 011851Z 04007KT 09/M14 A304 RMK A01 T00871139  RH  019%=      5-min Rain = 0
KPA1 011852Z 02008KT 09/M14 A3039 RMK A01 T00871141  RH  018%=      5-min Rain = 0
KPA1 011853Z 01007KT 09/M14 A3039 RMK A01 T00851141  RH  019%=      5-min Rain = 0
KPA1 011854Z 02004KT 08/M14 A3039 RMK A01 T00841141  RH  019%=      5-min Rain = 0
KPA1 011855Z 02003KT 08/M14 A3039 RMK A01 T00831139  RH  019%=      5-min Rain = 0
KPA1 011856Z 02005KT 08/M14 A3039 RMK A01 T00821140  RH  019%=      5-min Rain = 0
KPA1 011857Z 00005KT 08/M14 A3039 RMK A01 T00821137  RH  020%=      5-min Rain = 0
KPA1 011858Z 01005KT 08/M14 A3039 RMK A01 T00841137  RH  019%=      5-min Rain = 0
KPA1 011859Z 03010KT 09/M14 A3039 RMK A01 T00851135  RH  020%=      5-min Rain = 0
KPA1 011900Z 03013KT 09/M14 A3039 RMK A01 T00901136  RH  019%=      5-min Rain = 0
KPA1 011901Z 03010KT 09/M14 A3039 RMK A01 T00921143  RH  018%=      5-min Rain = 0
KPA1 011902Z 06011KT 09/M15 A3039 RMK A01 T00891149  RH  017%=      5-min Rain = 0
KPA1 011903Z 06008KT 09/M15 A3039 RMK A01 T00861154  RH  017%=      5-min Rain = 0
KPA1 011904Z 08006KT 08/M15 A3039 RMK A01 T00841154  RH  017%=      5-min Rain = 0
KPA1 011905Z 07005KT 08/M15 A3039 RMK A01 T00841154  RH  017%=      5-min Rain = 0
KPA1 011906Z 07004KT 08/M15 A3039 RMK A01 T00841154  RH  017%=      5-min Rain = 0
KPA1 011907Z 07003KT 08/M16 A3039 RMK A01 T00841156  RH  017%=      5-min Rain = 0
KPA1 011908Z 09003KT 08/M15 A3039 RMK A01 T00841154  RH  017%=      5-min Rain = 0
KPA1 011909Z 07004KT 08/M15 A3039 RMK A01 T00841154  RH  017%=      5-min Rain = 0
KPA1 011910Z 07004G9KT 09/M15 A3039 RMK A01 T00851150  RH  017%=      5-min Rain = 0
KPA1 011911Z 06009KT 09/M15 A3039 RMK A01 T00861152  RH  017%=      5-min Rain = 0
KPA1 011912Z 05009KT 08/M16 A3039 RMK A01 T00841157  RH  016%=      5-min Rain = 0
KPA1 011913Z 07008G13KT 09/M15 A3039 RMK A01 T00851154  RH  017%=      5-min Rain = 0
KPA1 011914Z 10006KT 09/M15 A3038 RMK A01 T00851153  RH  017%=      5-min Rain = 0
KPA1 011915Z 05008KT 09/M15 A3038 RMK A01 T00871150  RH  017%=      5-min Rain = 0
KPA1 011916Z 04011KT 09/M15 A3038 RMK A01 T00901147  RH  017%=      5-min Rain = 0
KPA1 011917Z 04010KT 09/M15 A3038 RMK A01 T00911147  RH  017%=      5-min Rain = 0
KPA1 011918Z 05008KT 09/M15 A3038 RMK A01 T00911150  RH  017%=      5-min Rain = 0
KPA1 011919Z 05007KT 09/M15 A3038 RMK A01 T00881154  RH  016%=      5-min Rain = 0
KPA1 011920Z 04009KT 09/M15 A3038 RMK A01 T00881150  RH  017%=      5-min Rain = 0
KPA1 011921Z 01007KT 09/M15 A3038 RMK A01 T00911147  RH  017%=      5-min Rain = 0
KPA1 011922Z 01011KT 09/M15 A3038 RMK A01 T00921149  RH  017%=      5-min Rain = 0
KPA1 011923Z 02009KT 09/M15 A3038 RMK A01 T00921150  RH  016%=      5-min Rain = 0
KPA1 011924Z 00008KT 09/M15 A3038 RMK A01 T00921152  RH  016%=      5-min Rain = 0
KPA1 011925Z 01008KT 09/M15 A3038 RMK A01 T00891153  RH  016%=      5-min Rain = 0
KPA1 011926Z 06010KT 09/M15 A3038 RMK A01 T00911146  RH  017%=      5-min Rain = 0
KPA1 011927Z 09009KT 09/M15 A3038 RMK A01 T00911150  RH  017%=      5-min Rain = 0
KPA1 011928Z 04012KT 09/M15 A3038 RMK A01 T00911149  RH  017%=      5-min Rain = 0
KPA1 011929Z 01011KT 09/M15 A3038 RMK A01 T00931150  RH  016%=      5-min Rain = 0
KPA1 011930Z 03011KT 09/M16 A3038 RMK A01 T00891155  RH  016%=      5-min Rain = 0
KPA1 011931Z 02011KT 09/M15 A3038 RMK A01 T00931149  RH  017%=      5-min Rain = 0
KPA1 011932Z 02006KT 09/M16 A3038 RMK A01 T00931155  RH  016%=      5-min Rain = 0
KPA1 011933Z 01006G12KT 09/M15 A3038 RMK A01 T00921154  RH  016%=      5-min Rain = 0
KPA1 011934Z 02011KT 09/M16 A3038 RMK A01 T00921155  RH  016%=      5-min Rain = 0
KPA1 011935Z 01009KT 09/M16 A3038 RMK A01 T00911156  RH  016%=      5-min Rain = 0
KPA1 011936Z 01010KT 09/M16 A3038 RMK A01 T00911155  RH  016%=      5-min Rain = 0
KPA1 011937Z 02011KT 09/M15 A3038 RMK A01 T00901151  RH  016%=      5-min Rain = 0
KPA1 011938Z 02008KT 09/M15 A3038 RMK A01 T00901154  RH  016%=      5-min Rain = 0
KPA1 011939Z 02005KT 09/M16 A3037 RMK A01 T00881157  RH  016%=      5-min Rain = 0
KPA1 011940Z 02005KT 09/M16 A3037 RMK A01 T00871158  RH  016%=      5-min Rain = 0
KPA1 011941Z 02008KT 09/M16 A3037 RMK A01 T00881155  RH  016%=      5-min Rain = 0
KPA1 011942Z 00008KT 09/M15 A3037 RMK A01 T00891150  RH  017%=      5-min Rain = 0
KPA1 011943Z 01010KT 09/M15 A3037 RMK A01 T00891145  RH  017%=      5-min Rain = 0
KPA1 011944Z 02011KT 09/M14 A3037 RMK A01 T00921142  RH  018%=      5-min Rain = 0
KPA1 011945Z 03007KT 09/M15 A3037 RMK A01 T00921145  RH  017%=      5-min Rain = 0
KPA1 011946Z 02008KT 09/M15 A3037 RMK A01 T00891149  RH  017%=      5-min Rain = 0
KPA1 011947Z 04005KT 09/M15 A3037 RMK A01 T00861152  RH  017%=      5-min Rain = 0
KPA1 011948Z 06002KT 08/M15 A3037 RMK A01 T00831153  RH  017%=      5-min Rain = 0
KPA1 011949Z 02003KT 08/M15 A3037 RMK A01 T00841147  RH  018%=      5-min Rain = 0
KPA1 011950Z 02004KT 09/M14 A3037 RMK A01 T00901138  RH  018%=      5-min Rain = 0
KPA1 011951Z 02004KT 09/M14 A3037 RMK A01 T00931142  RH  018%=      5-min Rain = 0
KPA1 011952Z 01007KT 09/M14 A3037 RMK A01 T00931142  RH  017%=      5-min Rain = 0
KPA1 011953Z 03008KT 09/M15 A3037 RMK A01 T00931150  RH  016%=      5-min Rain = 0
KPA1 011954Z 04008KT 09/M15 A3037 RMK A01 T00921153  RH  016%=      5-min Rain = 0
KPA1 011955Z 02009KT 09/M15 A3037 RMK A01 T00931149  RH  016%=      5-min Rain = 0
KPA1 011956Z 03006G11KT 09/M15 A3037 RMK A01 T00941152  RH  016%=      5-min Rain = 0
KPA1 011957Z 04004G9KT 09/M16 A3037 RMK A01 T00891158  RH  016%=      5-min Rain = 0
KPA1 011958Z 01009KT 09/M15 A3037 RMK A01 T00881152  RH  017%=      5-min Rain = 0
KPA1 011959Z 00005KT 09/M15 A3037 RMK A01 T00911150  RH  017%=      5-min Rain = 0
KPA1 012000Z 35007KT 09/M15 A3036 RMK A01 T00901153  RH  016%=      5-min Rain = 0
KPA1 012001Z 35006KT 09/M15 A3036 RMK A01 T00891153  RH  016%=      5-min Rain = 0
KPA1 012002Z 34006KT 09/M15 A3036 RMK A01 T00891151  RH  017%=      5-min Rain = 0
KPA1 012003Z 33003KT 09/M15 A3036 RMK A01 T00891151  RH  017%=      5-min Rain = 0
KPA1 012004Z 00006KT 09/M15 A3036 RMK A01 T00891150  RH  017%=      5-min Rain = 0
KPA1 012005Z 35006KT 09/M15 A3036 RMK A01 T00921145  RH  017%=      5-min Rain = 0
KPA1 012006Z 34005KT 09/M15 A3036 RMK A01 T00941149  RH  016%=      5-min Rain = 0
KPA1 012007Z 34004KT 09/M15 A3036 RMK A01 T00931151  RH  016%=      5-min Rain = 0
KPA1 012008Z 33002KT 09/M15 A3036 RMK A01 T00911154  RH  016%=      5-min Rain = 0
KPA1 012009Z 35003KT 09/M15 A3036 RMK A01 T00901152  RH  016%=      5-min Rain = 0
KPA1 012010Z 36003KT 09/M15 A3036 RMK A01 T00921150  RH  016%=      5-min Rain = 0
KPA1 012011Z 35001KT 09/M16 A3036 RMK A01 T00911155  RH  016%=      5-min Rain = 0
KPA1 012012Z 34002KT 09/M16 A3036 RMK A01 T00901156  RH  016%=      5-min Rain = 0
KPA1 012013Z 36003KT 09/M15 A3036 RMK A01 T00911153  RH  016%=      5-min Rain = 0
KPA1 012014Z 32001KT 09/M15 A3036 RMK A01 T00911154  RH  016%=      5-min Rain = 0
KPA1 012015Z 33001KT 09/M15 A3036 RMK A01 T00921151  RH  016%=      5-min Rain = 0
KPA1 012016Z 04002KT 10/M15 A3036 RMK A01 T00951147  RH  017%=      5-min Rain = 0
KPA1 012017Z 02004KT 10/M15 A3036 RMK A01 T00981145  RH  017%=      5-min Rain = 0
KPA1 012018Z 02004KT 10/M15 A3036 RMK A01 T01001146  RH  016%=      5-min Rain = 0
KPA1 012019Z 00003KT 10/M15 A3036 RMK A01 T00981152  RH  016%=      5-min Rain = 0
KPA1 012020Z 02005KT 10/M15 A3036 RMK A01 T00961151  RH  016%=      5-min Rain = 0
KPA1 012021Z 01005KT 09/M15 A3036 RMK A01 T00941151  RH  016%=      5-min Rain = 0
KPA1 012022Z 06005KT 09/M15 A3036 RMK A01 T00941147  RH  017%=      5-min Rain = 0
KPA1 012023Z 07004KT 10/M15 A3036 RMK A01 T00971145  RH  017%=      5-min Rain = 0
KPA1 012024Z 08006KT 10/M15 A3036 RMK A01 T00971147  RH  016%=      5-min Rain = 0
KPA1 012025Z 08004KT 10/M15 A3035 RMK A01 T00951151  RH  016%=      5-min Rain = 0
KPA1 012026Z 07003KT 09/M15 A3035 RMK A01 T00941149  RH  016%=      5-min Rain = 0
KPA1 012027Z 08006KT 09/M15 A3035 RMK A01 T00941148  RH  017%=      5-min Rain = 0
KPA1 012028Z 05005KT 10/M15 A3035 RMK A01 T00961146  RH  016%=      5-min Rain = 0
KPA1 012029Z 04004KT 10/M15 A3035 RMK A01 T00951151  RH  016%=      5-min Rain = 0
KPA1 012030Z 07003KT 10/M15 A3035 RMK A01 T00951145  RH  017%=      5-min Rain = 0
KPA1 012031Z 09003KT 10/M15 A3035 RMK A01 T00951148  RH  016%=      5-min Rain = 0
KPA1 012032Z 06002KT 10/M15 A3035 RMK A01 T00951149  RH  016%=      5-min Rain = 0
KPA1 012033Z 02002KT 10/M15 A3035 RMK A01 T00951151  RH  016%=      5-min Rain = 0
KPA1 012034Z 15003KT 10/M15 A3035 RMK A01 T00951147  RH  017%=      5-min Rain = 0
KPA1 012035Z 10004KT 10/M14 A3035 RMK A01 T00971144  RH  017%=      5-min Rain = 0
KPA1 012036Z 07001KT 10/M15 A3035 RMK A01 T00961151  RH  016%=      5-min Rain = 0
KPA1 012037Z 20000KT 10/M15 A3035 RMK A01 T00951150  RH  016%=      5-min Rain = 0
KPA1 012038Z 24001KT 10/M15 A3035 RMK A01 T00961146  RH  016%=      5-min Rain = 0
KPA1 012039Z 26000KT 10/M15 A3035 RMK A01 T00971148  RH  016%=      5-min Rain = 0
KPA1 012040Z 07001KT 10/M15 A3035 RMK A01 T00971149  RH  016%=      5-min Rain = 0
KPA1 012041Z 12003KT 10/M15 A3035 RMK A01 T00991146  RH  016%=      5-min Rain = 0
KPA1 012042Z 14001KT 10/M15 A3035 RMK A01 T01001147  RH  016%=      5-min Rain = 0
KPA1 012043Z 00000KT 10/M15 A3035 RMK A01 T01011148  RH  016%=      5-min Rain = 0
KPA1 012044Z 02002G7KT 10/M15 A3035 RMK A01 T01031148  RH  015%=      5-min Rain = 0
KPA1 012045Z 03009KT 10/M15 A3035 RMK A01 T01041146  RH  016%=      5-min Rain = 0
KPA1 012046Z 02009KT 10/M15 A3035 RMK A01 T01001150  RH  016%=      5-min Rain = 0
KPA1 012047Z 02011KT 10/M15 A3035 RMK A01 T00981148  RH  016%=      5-min Rain = 0
KPA1 012048Z 02009KT 10/M15 A3035 RMK A01 T00991145  RH  016%=      5-min Rain = 0
KPA1 012049Z 03009KT 10/M15 A3035 RMK A01 T00991148  RH  016%=      5-min Rain = 0
KPA1 012050Z 02007KT 10/M15 A3035 RMK A01 T00991147  RH  016%=      5-min Rain = 0
KPA1 012051Z 02008KT 10/M14 A3035 RMK A01 T01021142  RH  017%=      5-min Rain = 0
KPA1 012052Z 04005KT 10/M15 A3035 RMK A01 T01021147  RH  016%=      5-min Rain = 0
KPA1 012053Z 06003KT 10/M15 A3035 RMK A01 T01001149  RH  016%=      5-min Rain = 0
KPA1 012054Z 05002KT 10/M15 A3035 RMK A01 T00971153  RH  016%=      5-min Rain = 0
KPA1 012055Z 04001KT 10/M15 A3035 RMK A01 T00961150  RH  016%=      5-min Rain = 0
KPA1 012056Z 05001KT 10/M15 A3035 RMK A01 T00971148  RH  016%=      5-min Rain = 0
KPA1 012057Z 04004KT 10/M15 A3035 RMK A01 T00991146  RH  016%=      5-min Rain = 0
KPA1 012058Z 04003KT 10/M15 A3035 RMK A01 T00991150  RH  016%=      5-min Rain = 0
KPA1 012059Z 01009KT 10/M15 A3035 RMK A01 T00961151  RH  016%=      5-min Rain = 0
KPA1 012100Z 00007KT 10/M15 A3035 RMK A01 T00961152  RH  016%=      5-min Rain = 0
KPA1 012101Z 35006KT 09/M16 A3035 RMK A01 T00941155  RH  016%=      5-min Rain = 0
KPA1 012102Z 02005KT 09/M15 A3035 RMK A01 T00931154  RH  016%=      5-min Rain = 0
KPA1 012103Z 02005KT 09/M15 A3035 RMK A01 T00941153  RH  016%=      5-min Rain = 0
KPA1 012104Z 35003KT 09/M15 A3035 RMK A01 T00941154  RH  016%=      5-min Rain = 0
KPA1 012105Z 33002KT 09/M15 A3035 RMK A01 T00941154  RH  016%=      5-min Rain = 0
KPA1 012106Z 01001KT 09/M16 A3035 RMK A01 T00931156  RH  016%=      5-min Rain = 0
KPA1 012107Z 04000KT 09/M16 A3035 RMK A01 T00921156  RH  016%=      5-min Rain = 0
KPA1 012108Z 30000KT 09/M16 A3035 RMK A01 T00931157  RH  015%=      5-min Rain = 0
KPA1 012109Z 00000KT 10/M16 A3035 RMK A01 T00951157  RH  015%=      5-min Rain = 0
KPA1 012110Z 10001KT 10/M16 A3035 RMK A01 T00961155  RH  015%=      5-min Rain = 0
KPA1 012111Z 06002KT 10/M16 A3035 RMK A01 T00981155  RH  015%=      5-min Rain = 0
KPA1 012112Z 05001KT 10/M16 A3035 RMK A01 T00981155  RH  015%=      5-min Rain = 0
KPA1 012113Z 13001KT 10/M16 A3035 RMK A01 T00961156  RH  015%=      5-min Rain = 0
KPA1 012114Z 13004KT 10/M15 A3035 RMK A01 T00971154  RH  015%=      5-min Rain = 0
KPA1 012115Z 11003KT 10/M16 A3035 RMK A01 T01001155  RH  015%=      5-min Rain = 0
KPA1 012116Z 10005KT 10/M16 A3035 RMK A01 T01001159  RH  015%=      5-min Rain = 0
KPA1 012117Z 11003KT 10/M16 A3035 RMK A01 T00981164  RH  014%=      5-min Rain = 0
KPA1 012118Z 10004KT 10/M16 A3035 RMK A01 T00971163  RH  014%=      5-min Rain = 0
KPA1 012119Z 12006KT 10/M16 A3035 RMK A01 T00991158  RH  015%=      5-min Rain = 0
KPA1 012120Z 10006KT 10/M16 A3035 RMK A01 T01001159  RH  014%=      5-min Rain = 0
KPA1 012121Z 06006KT 10/M16 A3035 RMK A01 T01001159  RH  015%=      5-min Rain = 0
KPA1 012122Z 06004KT 10/M16 A3035 RMK A01 T00991160  RH  014%=      5-min Rain = 0
KPA1 012123Z 06003KT 10/M16 A3035 RMK A01 T00971163  RH  014%=      5-min Rain = 0
KPA1 012124Z 04002KT 10/M16 A3035 RMK A01 T00971159  RH  015%=      5-min Rain = 0
KPA1 012125Z 01003KT 10/M15 A3035 RMK A01 T01001152  RH  015%=      5-min Rain = 0
KPA1 012126Z 34005KT 10/M15 A3035 RMK A01 T01041149  RH  015%=      5-min Rain = 0
KPA1 012127Z 33009KT 10/M15 A3035 RMK A01 T01041149  RH  015%=      5-min Rain = 0
KPA1 012128Z 32009KT 10/M15 A3035 RMK A01 T01011154  RH  015%=      5-min Rain = 0
KPA1 012129Z 32007KT 10/M16 A3035 RMK A01 T00971159  RH  015%=      5-min Rain = 0
KPA1 012130Z 30006KT 10/M16 A3035 RMK A01 T00951160  RH  015%=      5-min Rain = 0
KPA1 012131Z 34006KT 10/M16 A3035 RMK A01 T00951161  RH  015%=      5-min Rain = 0
KPA1 012132Z 36006KT 09/M16 A3035 RMK A01 T00941159  RH  015%=      5-min Rain = 0
KPA1 012133Z 02007KT 10/M16 A3035 RMK A01 T00951157  RH  015%=      5-min Rain = 0
KPA1 012134Z 01007KT 10/M16 A3035 RMK A01 T00951158  RH  015%=      5-min Rain = 0
KPA1 012135Z 01005KT 09/M16 A3035 RMK A01 T00941157  RH  015%=      5-min Rain = 0
KPA1 012136Z 03003KT 09/M16 A3035 RMK A01 T00941155  RH  016%=      5-min Rain = 0
KPA1 012137Z 01005KT 09/M15 A3035 RMK A01 T00941153  RH  016%=      5-min Rain = 0
KPA1 012138Z 01004KT 10/M15 A3035 RMK A01 T00951154  RH  016%=      5-min Rain = 0
KPA1 012139Z 35003KT 10/M16 A3035 RMK A01 T00951156  RH  015%=      5-min Rain = 0
KPA1 012140Z 31002KT 09/M16 A3035 RMK A01 T00941156  RH  015%=      5-min Rain = 0
KPA1 012141Z 36002KT 10/M16 A3035 RMK A01 T00951155  RH  016%=      5-min Rain = 0
KPA1 012142Z 35003KT 10/M15 A3035 RMK A01 T00971152  RH  016%=      5-min Rain = 0
KPA1 012143Z 35001KT 10/M15 A3035 RMK A01 T00971154  RH  015%=      5-min Rain = 0
KPA1 012144Z 03001KT 10/M15 A3034 RMK A01 T00971153  RH  016%=      5-min Rain = 0
KPA1 012145Z 03002KT 10/M15 A3034 RMK A01 T00971153  RH  015%=      5-min Rain = 0
KPA1 012146Z 02003KT 10/M15 A3034 RMK A01 T00971152  RH  016%=      5-min Rain = 0
KPA1 012147Z 03002KT 10/M15 A3034 RMK A01 T00971151  RH  016%=      5-min Rain = 0
KPA1 012148Z 06001KT 10/M15 A3034 RMK A01 T00971150  RH  016%=      5-min Rain = 0
KPA1 012149Z 04002KT 10/M15 A3034 RMK A01 T00981147  RH  016%=      5-min Rain = 0
KPA1 012150Z 04001KT 10/M15 A3034 RMK A01 T00991151  RH  016%=      5-min Rain = 0
KPA1 012151Z 03004KT 10/M15 A3034 RMK A01 T01001147  RH  016%=      5-min Rain = 0
KPA1 012152Z 02004KT 10/M15 A3034 RMK A01 T01011147  RH  016%=      5-min Rain = 0
KPA1 012153Z 03006KT 10/M15 A3034 RMK A01 T01011148  RH  016%=      5-min Rain = 0
KPA1 012154Z 03004KT 10/M15 A3034 RMK A01 T01011148  RH  016%=      5-min Rain = 0
KPA1 012155Z 36003KT 10/M15 A3034 RMK A01 T01001150  RH  016%=      5-min Rain = 0
KPA1 012156Z 35006KT 10/M15 A3034 RMK A01 T00981150  RH  016%=      5-min Rain = 0
KPA1 012157Z 34005KT 10/M15 A3034 RMK A01 T00991147  RH  016%=      5-min Rain = 0
KPA1 012158Z 36005KT 10/M15 A3034 RMK A01 T00981148  RH  016%=      5-min Rain = 0
KPA1 012159Z 03009KT 10/M15 A3034 RMK A01 T00991146  RH  016%=      5-min Rain = 0
KPA1 012200Z 03008KT 10/M14 A3034 RMK A01 T01021142  RH  016%=      5-min Rain = 0
KPA1 012201Z 00010KT 10/M14 A3034 RMK A01 T01041141  RH  016%=      5-min Rain = 0
KPA1 012202Z 00006KT 10/M15 A3034 RMK A01 T01031147  RH  016%=      5-min Rain = 0
KPA1 012203Z 01006KT 10/M15 A3034 RMK A01 T00991149  RH  016%=      5-min Rain = 0
KPA1 012204Z 01007KT 10/M15 A3034 RMK A01 T00991149  RH  016%=      5-min Rain = 0
KPA1 012205Z 00006KT 10/M15 A3034 RMK A01 T00991151  RH  016%=      5-min Rain = 0
KPA1 012206Z 35005KT 10/M15 A3034 RMK A01 T00981151  RH  016%=      5-min Rain = 0
KPA1 012207Z 01005KT 10/M15 A3034 RMK A01 T00971150  RH  016%=      5-min Rain = 0
KPA1 012208Z 02004KT 10/M15 A3034 RMK A01 T00981152  RH  016%=      5-min Rain = 0
KPA1 012209Z 03004KT 10/M15 A3034 RMK A01 T00971152  RH  016%=      5-min Rain = 0
KPA1 012210Z 02004KT 10/M15 A3034 RMK A01 T00971152  RH  016%=      5-min Rain = 0
KPA1 012211Z 03006KT 10/M15 A3034 RMK A01 T00971150  RH  016%=      5-min Rain = 0
KPA1 012212Z 02005KT 10/M15 A3034 RMK A01 T00981152  RH  016%=      5-min Rain = 0
KPA1 012213Z 05005KT 10/M15 A3034 RMK A01 T00971152  RH  016%=      5-min Rain = 0
KPA1 012214Z 05007KT 10/M15 A3034 RMK A01 T00981149  RH  016%=      5-min Rain = 0
KPA1 012215Z 06005KT 10/M15 A3034 RMK A01 T00981149  RH  016%=      5-min Rain = 0
KPA1 012216Z 06003KT 10/M15 A3034 RMK A01 T00981149  RH  016%=      5-min Rain = 0
KPA1 012217Z 07004KT 10/M15 A3034 RMK A01 T00981151  RH  016%=      5-min Rain = 0
KPA1 012218Z 08004KT 10/M15 A3034 RMK A01 T00981151  RH  016%=      5-min Rain = 0
KPA1 012219Z 08002KT 10/M15 A3034 RMK A01 T00981150  RH  016%=      5-min Rain = 0
KPA1 012220Z 06001KT 10/M15 A3033 RMK A01 T00981150  RH  016%=      5-min Rain = 0
KPA1 012221Z 05001KT 10/M15 A3033 RMK A01 T00981150  RH  016%=      5-min Rain = 0
KPA1 012222Z 05002KT 10/M15 A3033 RMK A01 T00981149  RH  016%=      5-min Rain = 0
KPA1 012223Z 35003KT 10/M15 A3033 RMK A01 T00991148  RH  016%=      5-min Rain = 0
KPA1 012224Z 35002KT 10/M14 A3034 RMK A01 T01001144  RH  016%=      5-min Rain = 0
KPA1 012225Z 33004KT 10/M15 A3034 RMK A01 T01011145  RH  016%=      5-min Rain = 0
KPA1 012226Z 33003KT 10/M15 A3034 RMK A01 T01011147  RH  016%=      5-min Rain = 0
KPA1 012227Z 33001KT 10/M15 A3034 RMK A01 T01001149  RH  016%=      5-min Rain = 0
KPA1 012228Z 28001KT 10/M15 A3033 RMK A01 T00991149  RH  016%=      5-min Rain = 0
KPA1 012229Z 31005KT 10/M15 A3033 RMK A01 T01001147  RH  016%=      5-min Rain = 0
KPA1 012230Z 33003KT 10/M15 A3033 RMK A01 T01011146  RH  016%=      5-min Rain = 0
KPA1 012231Z 35001KT 10/M15 A3033 RMK A01 T01001146  RH  016%=      5-min Rain = 0
KPA1 012232Z 32003KT 10/M14 A3033 RMK A01 T01001144  RH  016%=      5-min Rain = 0
KPA1 012233Z 31003KT 10/M14 A3033 RMK A01 T01011144  RH  016%=      5-min Rain = 0
KPA1 012234Z 30005KT 10/M14 A3033 RMK A01 T01021144  RH  016%=      5-min Rain = 0
KPA1 012235Z 30003KT 10/M15 A3033 RMK A01 T01021146  RH  016%=      5-min Rain = 0
KPA1 012236Z 27006KT 10/M15 A3033 RMK A01 T01021145  RH  016%=      5-min Rain = 0
KPA1 012237Z 27005KT 10/M15 A3033 RMK A01 T01021146  RH  016%=      5-min Rain = 0
KPA1 012238Z 28007KT 10/M15 A3033 RMK A01 T01021145  RH  016%=      5-min Rain = 0
KPA1 012239Z 27004KT 10/M15 A3033 RMK A01 T01021145  RH  016%=      5-min Rain = 0
KPA1 012240Z 27004KT 10/M15 A3033 RMK A01 T01021146  RH  016%=      5-min Rain = 0
KPA1 012241Z 28004KT 10/M15 A3033 RMK A01 T01021147  RH  016%=      5-min Rain = 0
KPA1 012242Z 32006KT 10/M15 A3033 RMK A01 T01011146  RH  016%=      5-min Rain = 0
KPA1 012243Z 32005KT 10/M15 A3033 RMK A01 T01011146  RH  016%=      5-min Rain = 0
KPA1 012244Z 33005KT 10/M15 A3033 RMK A01 T01011145  RH  016%=      5-min Rain = 0
KPA1 012245Z 33006KT 10/M14 A3033 RMK A01 T01021141  RH  017%=      5-min Rain = 0
KPA1 012246Z 32006KT 10/M14 A3033 RMK A01 T01041140  RH  016%=      5-min Rain = 0
KPA1 012247Z 34004KT 10/M15 A3033 RMK A01 T01031145  RH  016%=      5-min Rain = 0
KPA1 012248Z 33002KT 10/M14 A3033 RMK A01 T01031143  RH  016%=      5-min Rain = 0
KPA1 012249Z 34003KT 10/M14 A3033 RMK A01 T01031144  RH  016%=      5-min Rain = 0
KPA1 012250Z 33001KT 10/M15 A3033 RMK A01 T01021148  RH  016%=      5-min Rain = 0
KPA1 012251Z 34000KT 10/M15 A3033 RMK A01 T01011149  RH  016%=      5-min Rain = 0
KPA1 012252Z 04001KT 10/M15 A3033 RMK A01 T01031146  RH  016%=      5-min Rain = 0
KPA1 012253Z 03004KT 10/M15 A3033 RMK A01 T01041145  RH  016%=      5-min Rain = 0
KPA1 012254Z 05004KT 10/M15 A3033 RMK A01 T01021148  RH  016%=      5-min Rain = 0
KPA1 012255Z 06003KT 10/M15 A3033 RMK A01 T01001150  RH  016%=      5-min Rain = 0
KPA1 012256Z 07002KT 10/M15 A3033 RMK A01 T00991150  RH  016%=      5-min Rain = 0
KPA1 012257Z 09003KT 10/M15 A3033 RMK A01 T00981151  RH  016%=      5-min Rain = 0
KPA1 012258Z 10003KT 10/M15 A3033 RMK A01 T00981151  RH  016%=      5-min Rain = 0
KPA1 012259Z 10002KT 10/M15 A3033 RMK A01 T00981151  RH  016%=      5-min Rain = 0
KPA1 012300Z 09002KT 10/M15 A3033 RMK A01 T00971148  RH  016%=      5-min Rain = 0
KPA1 012301Z 09001KT 10/M15 A3033 RMK A01 T00981146  RH  016%=      5-min Rain = 0
KPA1 012302Z 01002KT 10/M14 A3033 RMK A01 T01001143  RH  017%=      5-min Rain = 0
KPA1 012303Z 00002KT 10/M14 A3033 RMK A01 T01001143  RH  017%=      5-min Rain = 0
KPA1 012304Z 31002KT 10/M14 A3033 RMK A01 T01011139  RH  017%=      5-min Rain = 0
KPA1 012305Z 26003KT 10/M14 A3033 RMK A01 T01031139  RH  017%=      5-min Rain = 0
KPA1 012306Z 26003KT 10/M14 A3033 RMK A01 T01041139  RH  017%=      5-min Rain = 0
KPA1 012307Z 27003KT 10/M14 A3033 RMK A01 T01041140  RH  017%=      5-min Rain = 0
KPA1 012308Z 24005KT 11/M14 A3033 RMK A01 T01051139  RH  017%=      5-min Rain = 0
KPA1 012309Z 22003KT 10/M14 A3033 RMK A01 T01041143  RH  016%=      5-min Rain = 0
KPA1 012310Z 28003KT 10/M14 A3033 RMK A01 T01031142  RH  016%=      5-min Rain = 0
KPA1 012311Z 26003KT 10/M14 A3033 RMK A01 T01041139  RH  017%=      5-min Rain = 0
KPA1 012312Z 25004KT 11/M14 A3033 RMK A01 T01051138  RH  017%=      5-min Rain = 0
KPA1 012313Z 29004KT 10/M14 A3033 RMK A01 T01041140  RH  016%=      5-min Rain = 0
KPA1 012314Z 33004KT 10/M14 A3032 RMK A01 T01041138  RH  017%=      5-min Rain = 0
KPA1 012315Z 33006KT 10/M14 A3033 RMK A01 T01031142  RH  016%=      5-min Rain = 0
KPA1 012316Z 34007KT 10/M14 A3033 RMK A01 T01021139  RH  017%=      5-min Rain = 0
KPA1 012317Z 34008KT 10/M14 A3033 RMK A01 T01001141  RH  017%=      5-min Rain = 0
KPA1 012318Z 34008KT 10/M14 A3033 RMK A01 T00991141  RH  017%=      5-min Rain = 0
KPA1 012319Z 34007KT 10/M14 A3033 RMK A01 T00981141  RH  017%=      5-min Rain = 0
KPA1 012320Z 35008KT 10/M14 A3033 RMK A01 T00981139  RH  017%=      5-min Rain = 0
KPA1 012321Z 35007KT 10/M14 A3033 RMK A01 T00991139  RH  017%=      5-min Rain = 0
KPA1 012322Z 35006KT 10/M14 A3033 RMK A01 T00991139  RH  017%=      5-min Rain = 0
KPA1 012323Z 35005KT 10/M14 A3033 RMK A01 T00981141  RH  017%=      5-min Rain = 0
KPA1 012324Z 35005KT 10/M14 A3033 RMK A01 T00981142  RH  017%=      5-min Rain = 0
KPA1 012325Z 35004KT 10/M14 A3033 RMK A01 T00971142  RH  017%=      5-min Rain = 0
KPA1 012326Z 35003KT 10/M14 A3033 RMK A01 T00961142  RH  017%=      5-min Rain = 0
KPA1 012327Z 34002KT 10/M14 A3033 RMK A01 T00961142  RH  017%=      5-min Rain = 0
KPA1 012328Z 33002KT 10/M14 A3033 RMK A01 T00961141  RH  017%=      5-min Rain = 0
KPA1 012329Z 34002KT 10/M14 A3033 RMK A01 T00971140  RH  017%=      5-min Rain = 0
KPA1 012330Z 34002KT 10/M13 A3033 RMK A01 T00991134  RH  018%=      5-min Rain = 0
KPA1 012331Z 33004KT 10/M14 A3033 RMK A01 T01001135  RH  018%=      5-min Rain = 0
KPA1 012332Z 34004KT 10/M14 A3033 RMK A01 T01001136  RH  018%=      5-min Rain = 0
KPA1 012333Z 33003KT 10/M14 A3033 RMK A01 T00991137  RH  017%=      5-min Rain = 0
KPA1 012334Z 34003KT 10/M14 A3033 RMK A01 T00981141  RH  017%=      5-min Rain = 0
KPA1 012335Z 33002KT 10/M14 A3033 RMK A01 T00971144  RH  017%=      5-min Rain = 0
KPA1 012336Z 32001KT 10/M15 A3033 RMK A01 T00961145  RH  017%=      5-min Rain = 0
KPA1 012337Z 00000KT 10/M15 A3033 RMK A01 T00961145  RH  017%=      5-min Rain = 0
KPA1 012338Z 29000KT 10/M14 A3033 RMK A01 T00981143  RH  017%=      5-min Rain = 0
KPA1 012339Z 00000KT 10/M14 A3033 RMK A01 T01001143  RH  016%=      5-min Rain = 0
KPA1 012340Z 26000KT 10/M14 A3033 RMK A01 T01021142  RH  016%=      5-min Rain = 0
KPA1 012341Z 00000KT 10/M14 A3033 RMK A01 T01041138  RH  017%=      5-min Rain = 0
KPA1 012342Z 26000KT 11/M14 A3033 RMK A01 T01061137  RH  017%=      5-min Rain = 0
KPA1 012343Z 26001KT 11/M14 A3033 RMK A01 T01061140  RH  016%=      5-min Rain = 0
KPA1 012344Z 25000KT 11/M14 A3033 RMK A01 T01051144  RH  016%=      5-min Rain = 0
KPA1 012345Z 24000KT 10/M14 A3033 RMK A01 T01041142  RH  016%=      5-min Rain = 0
KPA1 012346Z 23001KT 10/M14 A3033 RMK A01 T01031144  RH  016%=      5-min Rain = 0
KPA1 012347Z 21002KT 10/M14 A3033 RMK A01 T01021143  RH  016%=      5-min Rain = 0
KPA1 012348Z 19001KT 10/M15 A3033 RMK A01 T01001145  RH  016%=      5-min Rain = 0
KPA1 012349Z 17001KT 10/M14 A3033 RMK A01 T01001144  RH  016%=      5-min Rain = 0
KPA1 012350Z 17001KT 10/M14 A3033 RMK A01 T01001144  RH  016%=      5-min Rain = 0
KPA1 012351Z 12001KT 10/M14 A3033 RMK A01 T00991144  RH  016%=      5-min Rain = 0
KPA1 012352Z 12001KT 10/M14 A3033 RMK A01 T00991144  RH  017%=      5-min Rain = 0
KPA1 012353Z 12001KT 10/M14 A3033 RMK A01 T00991144  RH  017%=      5-min Rain = 0
KPA1 012354Z 13001KT 10/M14 A3033 RMK A01 T00981144  RH  017%=      5-min Rain = 0
KPA1 012355Z 13000KT 10/M14 A3033 RMK A01 T00981142  RH  017%=      5-min Rain = 0
KPA1 012356Z 08000KT 10/M14 A3033 RMK A01 T00981138  RH  018%=      5-min Rain = 0
KPA1 012357Z 06001KT 10/M14 A3033 RMK A01 T00981138  RH  017%=      5-min Rain = 0
KPA1 012358Z 06000KT 10/M14 A3033 RMK A01 T00981139  RH  017%=      5-min Rain = 0
KPA1 012359Z 06001KT 10/M14 A3033 RMK A01 T00981138  RH  017%=      5-min Rain = 0
KPA1 020000Z 01001KT 10/M14 A3033 RMK A01 T00981137  RH  018%=      5-min Rain = 0
KPA1 020001Z 36001KT 10/M14 A3033 RMK A01 T00971135  RH  018%=      5-min Rain = 0
KPA1 020002Z 00001KT 10/M14 A3033 RMK A01 T00971138  RH  018%=      5-min Rain = 0
KPA1 020003Z 05001KT 10/M14 A3033 RMK A01 T00971138  RH  018%=      5-min Rain = 0
KPA1 020004Z 05000KT 10/M14 A3033 RMK A01 T00971135  RH  018%=      5-min Rain = 0
KPA1 020005Z 08001KT 10/M13 A3033 RMK A01 T00971133  RH  018%=      5-min Rain = 0
KPA1 020006Z 12000KT 10/M14 A3033 RMK A01 T00971135  RH  018%=      5-min Rain = 0
KPA1 020007Z 13000KT 10/M14 A3033 RMK A01 T00971136  RH  018%=      5-min Rain = 0
KPA1 020008Z 10000KT 10/M14 A3033 RMK A01 T00971139  RH  017%=      5-min Rain = 0
KPA1 020009Z 00000KT 10/M14 A3033 RMK A01 T00971139  RH  017%=      5-min Rain = 0
KPA1 020010Z 17001KT 10/M13 A3033 RMK A01 T00971133  RH  018%=      5-min Rain = 0
KPA1 020011Z 17000KT 10/M14 A3033 RMK A01 T00971138  RH  017%=      5-min Rain = 0
KPA1 020012Z 17000KT 10/M14 A3033 RMK A01 T00971140  RH  017%=      5-min Rain = 0
KPA1 020013Z 00000KT 10/M14 A3033 RMK A01 T00961142  RH  017%=      5-min Rain = 0
KPA1 020014Z 17000KT 10/M14 A3033 RMK A01 T00961142  RH  017%=      5-min Rain = 0
KPA1 020015Z 15000KT 10/M14 A3033 RMK A01 T00961135  RH  018%=      5-min Rain = 0
KPA1 020016Z 17000KT 09/M13 A3033 RMK A01 T00941132  RH  019%=      5-min Rain = 0
KPA1 020017Z 17000KT 09/M13 A3033 RMK A01 T00931134  RH  019%=      5-min Rain = 0
KPA1 020018Z 00000KT 09/M14 A3033 RMK A01 T00931136  RH  018%=      5-min Rain = 0
KPA1 020019Z 00000KT 09/M14 A3033 RMK A01 T00931138  RH  018%=      5-min Rain = 0
KPA1 020020Z 00000KT 09/M14 A3033 RMK A01 T00931140  RH  018%=      5-min Rain = 0
KPA1 020021Z 00000KT 09/M14 A3033 RMK A01 T00921140  RH  018%=      5-min Rain = 0
KPA1 020022Z 00000KT 09/M14 A3033 RMK A01 T00911139  RH  018%=      5-min Rain = 0
KPA1 020023Z 00000KT 09/M14 A3033 RMK A01 T00901141  RH  018%=      5-min Rain = 0
KPA1 020024Z 00000KT 09/M14 A3033 RMK A01 T00891142  RH  018%=      5-min Rain = 0
KPA1 020025Z 15000KT 09/M14 A3033 RMK A01 T00881141  RH  018%=      5-min Rain = 0
KPA1 020026Z 14000KT 09/M14 A3033 RMK A01 T00881141  RH  018%=      5-min Rain = 0
KPA1 020027Z 13001KT 09/M14 A3033 RMK A01 T00871141  RH  018%=      5-min Rain = 0
KPA1 020028Z 13001KT 09/M14 A3033 RMK A01 T00871141  RH  018%=      5-min Rain = 0
KPA1 020029Z 13000KT 09/M14 A3033 RMK A01 T00861141  RH  018%=      5-min Rain = 0
KPA1 020030Z 00000KT 09/M14 A3033 RMK A01 T00861141  RH  018%=      5-min Rain = 0
KPA1 020031Z 00000KT 09/M14 A3033 RMK A01 T00851143  RH  018%=      5-min Rain = 0
KPA1 020032Z 00000KT 09/M14 A3033 RMK A01 T00851143  RH  018%=      5-min Rain = 0
KPA1 020033Z 00000KT 08/M14 A3033 RMK A01 T00841144  RH  018%=      5-min Rain = 0
KPA1 020034Z 13000KT 08/M14 A3033 RMK A01 T00841144  RH  018%=      5-min Rain = 0
KPA1 020035Z 14000KT 08/M14 A3033 RMK A01 T00841144  RH  018%=      5-min Rain = 0
KPA1 020036Z 15001KT 08/M14 A3033 RMK A01 T00841144  RH  018%=      5-min Rain = 0
KPA1 020037Z 15000KT 08/M14 A3033 RMK A01 T00841144  RH  018%=      5-min Rain = 0
KPA1 020038Z 15000KT 08/M14 A3033 RMK A01 T00841144  RH  018%=      5-min Rain = 0
KPA1 020039Z 15001KT 08/M14 A3033 RMK A01 T00831144  RH  018%=      5-min Rain = 0
KPA1 020040Z 15001KT 08/M14 A3033 RMK A01 T00831143  RH  019%=      5-min Rain = 0
KPA1 020041Z 15001KT 08/M14 A3033 RMK A01 T00821143  RH  019%=      5-min Rain = 0
KPA1 020042Z 15000KT 08/M14 A3033 RMK A01 T00821143  RH  019%=      5-min Rain = 0
KPA1 020043Z 00000KT 08/M14 A3033 RMK A01 T00811142  RH  019%=      5-min Rain = 0
KPA1 020044Z 00000KT 08/M14 A3033 RMK A01 T00801142  RH  019%=      5-min Rain = 0
KPA1 020045Z 00000KT 08/M14 A3033 RMK A01 T00801142  RH  019%=      5-min Rain = 0
KPA1 020046Z 00000KT 08/M14 A3033 RMK A01 T00791142  RH  019%=      5-min Rain = 0
KPA1 020047Z 00000KT 08/M14 A3033 RMK A01 T00781143  RH  019%=      5-min Rain = 0
KPA1 020048Z 00000KT 08/M14 A3033 RMK A01 T00771142  RH  019%=      5-min Rain = 0
KPA1 020049Z 00000KT 08/M14 A3033 RMK A01 T00761143  RH  019%=      5-min Rain = 0
KPA1 020050Z 00000KT 08/M14 A3033 RMK A01 T00751142  RH  020%=      5-min Rain = 0
KPA1 020051Z 00000KT 07/M14 A3033 RMK A01 T00741143  RH  020%=      5-min Rain = 0
KPA1 020052Z 00000KT 07/M14 A3033 RMK A01 T00721142  RH  020%=      5-min Rain = 0
KPA1 020053Z 15001KT 07/M14 A3033 RMK A01 T00701142  RH  020%=      5-min Rain = 0
KPA1 020054Z 15001KT 07/M14 A3033 RMK A01 T00701142  RH  020%=      5-min Rain = 0
KPA1 020055Z 15001KT 07/M14 A3033 RMK A01 T00691141  RH  021%=      5-min Rain = 0
KPA1 020056Z 15002KT 07/M14 A3033 RMK A01 T00691141  RH  021%=      5-min Rain = 0
KPA1 020057Z 17002KT 07/M14 A3033 RMK A01 T00701141  RH  021%=      5-min Rain = 0
KPA1 020058Z 17003KT 07/M14 A3033 RMK A01 T00681141  RH  021%=      5-min Rain = 0
KPA1 020059Z 17003KT 06/M14 A3033 RMK A01 T00641144  RH  021%=      5-min Rain = 0
KPA1 020100Z 17003KT 06/M14 A3033 RMK A01 T00611144  RH  021%=      5-min Rain = 0
KPA1 020101Z 17003KT 06/M14 A3033 RMK A01 T00581144  RH  022%=      5-min Rain = 0
KPA1 020102Z 17002KT 06/M14 A3033 RMK A01 T00551143  RH  022%=      5-min Rain = 0
KPA1 020103Z 18002KT 05/M14 A3033 RMK A01 T00521141  RH  023%=      5-min Rain = 0
KPA1 020104Z 18003KT 05/M14 A3033 RMK A01 T00491139  RH  024%=      5-min Rain = 0
KPA1 020105Z 18003KT 05/M14 A3033 RMK A01 T00461138  RH  025%=      5-min Rain = 0
KPA1 020106Z 18003KT 04/M14 A3033 RMK A01 T00441138  RH  025%=      5-min Rain = 0
KPA1 020107Z 18003KT 04/M14 A3033 RMK A01 T00421137  RH  026%=      5-min Rain = 0
KPA1 020108Z 18003KT 04/M14 A3033 RMK A01 T00421137  RH  026%=      5-min Rain = 0
KPA1 020109Z 18003KT 04/M14 A3033 RMK A01 T00421137  RH  026%=      5-min Rain = 0
KPA1 020110Z 18003KT 04/M14 A3033 RMK A01 T00411138  RH  026%=      5-min Rain = 0
KPA1 020111Z 18003KT 04/M14 A3033 RMK A01 T00391138  RH  026%=      5-min Rain = 0
KPA1 020112Z 19002KT 04/M14 A3033 RMK A01 T00371139  RH  026%=      5-min Rain = 0
KPA1 020113Z 20002KT 04/M14 A3033 RMK A01 T00361138  RH  027%=      5-min Rain = 0
KPA1 020114Z 20003KT 04/M14 A3033 RMK A01 T00371138  RH  026%=      5-min Rain = 0
KPA1 020115Z 20003KT 04/M14 A3033 RMK A01 T00381138  RH  026%=      5-min Rain = 0
KPA1 020116Z 20003KT 04/M14 A3033 RMK A01 T00351140  RH  026%=      5-min Rain = 0
KPA1 020117Z 20002KT 03/M14 A3033 RMK A01 T00321141  RH  027%=      5-min Rain = 0
KPA1 020118Z 20002KT 03/M14 A3033 RMK A01 T00311139  RH  027%=      5-min Rain = 0
KPA1 020119Z 21002KT 03/M14 A3033 RMK A01 T00311139  RH  028%=      5-min Rain = 0
KPA1 020120Z 20002KT 03/M14 A3033 RMK A01 T00321138  RH  028%=      5-min Rain = 0
KPA1 020121Z 20002KT 03/M14 A3033 RMK A01 T00331138  RH  027%=      5-min Rain = 0
KPA1 020122Z 20002KT 03/M14 A3033 RMK A01 T00341137  RH  027%=      5-min Rain = 0
KPA1 020123Z 19002KT 03/M14 A3033 RMK A01 T00341137  RH  027%=      5-min Rain = 0
KPA1 020124Z 19002KT 03/M14 A3033 RMK A01 T00321138  RH  028%=      5-min Rain = 0
KPA1 020125Z 18002KT 03/M14 A3033 RMK A01 T00321138  RH  028%=      5-min Rain = 0
KPA1 020126Z 18002KT 03/M14 A3033 RMK A01 T00321138  RH  028%=      5-min Rain = 0
KPA1 020127Z 18003KT 03/M14 A3033 RMK A01 T00321138  RH  028%=      5-min Rain = 0
KPA1 020128Z 18002KT 03/M14 A3033 RMK A01 T00311138  RH  028%=      5-min Rain = 0
KPA1 020129Z 18003KT 03/M14 A3033 RMK A01 T00291138  RH  028%=      5-min Rain = 0
KPA1 020130Z 18003KT 03/M14 A3033 RMK A01 T00281139  RH  028%=      5-min Rain = 0
KPA1 020131Z 17003KT 03/M14 A3033 RMK A01 T00271138  RH  029%=      5-min Rain = 0
KPA1 020132Z 17002KT 03/M14 A3033 RMK A01 T00251138  RH  029%=      5-min Rain = 0
KPA1 020133Z 17002KT 02/M14 A3033 RMK A01 T00241139  RH  029%=      5-min Rain = 0
KPA1 020134Z 17003KT 02/M14 A3033 RMK A01 T00231139  RH  029%=      5-min Rain = 0
KPA1 020135Z 17002KT 02/M14 A3033 RMK A01 T00221137  RH  030%=      5-min Rain = 0
KPA1 020136Z 17002KT 02/M13 A3033 RMK A01 T00201134  RH  031%=      5-min Rain = 0
KPA1 020137Z 17003KT 02/M13 A3033 RMK A01 T00191132  RH  032%=      5-min Rain = 0
KPA1 020138Z 17002KT 02/M13 A3033 RMK A01 T00171132  RH  032%=      5-min Rain = 0
KPA1 020139Z 17002KT 02/M13 A3033 RMK A01 T00161131  RH  033%=      5-min Rain = 0
KPA1 020140Z 18002KT 02/M13 A3033 RMK A01 T00151130  RH  033%=      5-min Rain = 0
KPA1 020141Z 19002KT 01/M13 A3033 RMK A01 T00141130  RH  033%=      5-min Rain = 0
KPA1 020142Z 19002KT 02/M13 A3033 RMK A01 T00151131  RH  033%=      5-min Rain = 0
KPA1 020143Z 19002KT 02/M13 A3033 RMK A01 T00151132  RH  032%=      5-min Rain = 0
KPA1 020144Z 19002KT 02/M13 A3033 RMK A01 T00161133  RH  032%=      5-min Rain = 0
KPA1 020145Z 19002KT 02/M13 A3033 RMK A01 T00161134  RH  032%=      5-min Rain = 0
KPA1 020146Z 19002KT 02/M13 A3033 RMK A01 T00161134  RH  032%=      5-min Rain = 0
KPA1 020147Z 18003KT 02/M13 A3033 RMK A01 T00171133  RH  032%=      5-min Rain = 0
KPA1 020148Z 18003KT 02/M13 A3033 RMK A01 T00171134  RH  031%=      5-min Rain = 0
KPA1 020149Z 18003KT 02/M14 A3033 RMK A01 T00181135  RH  031%=      5-min Rain = 0
KPA1 020150Z 18002KT 02/M14 A3033 RMK A01 T00171137  RH  031%=      5-min Rain = 0
KPA1 020151Z 18002KT 02/M14 A3033 RMK A01 T00181138  RH  030%=      5-min Rain = 0
KPA1 020152Z 18002KT 02/M14 A3033 RMK A01 T00181140  RH  030%=      5-min Rain = 0
KPA1 020153Z 19002KT 02/M14 A3033 RMK A01 T00181140  RH  030%=      5-min Rain = 0
KPA1 020154Z 19002KT 02/M14 A3033 RMK A01 T00181141  RH  029%=      5-min Rain = 0
KPA1 020155Z 19002KT 02/M14 A3033 RMK A01 T00191141  RH  029%=      5-min Rain = 0
KPA1 020156Z 19002KT 02/M14 A3033 RMK A01 T00191142  RH  029%=      5-min Rain = 0
KPA1 020157Z 19002KT 02/M14 A3033 RMK A01 T00191143  RH  029%=      5-min Rain = 0
KPA1 020158Z 19002KT 02/M14 A3033 RMK A01 T00181142  RH  029%=      5-min Rain = 0
KPA1 020159Z 19002KT 02/M14 A3033 RMK A01 T00171143  RH  030%=      5-min Rain = 0
KPA1 020200Z 19002KT 02/M14 A3033 RMK A01 T00161143  RH  030%=      5-min Rain = 0
KPA1 020201Z 19002KT 02/M14 A3033 RMK A01 T00151142  RH  030%=      5-min Rain = 0
KPA1 020202Z 19002KT 01/M14 A3033 RMK A01 T00131143  RH  030%=      5-min Rain = 0
KPA1 020203Z 19002KT 01/M14 A3033 RMK A01 T00121141  RH  031%=      5-min Rain = 0
KPA1 020204Z 19002KT 01/M14 A3033 RMK A01 T00101139  RH  032%=      5-min Rain = 0
KPA1 020205Z 19002KT 01/M14 A3033 RMK A01 T00091140  RH  032%=      5-min Rain = 0
KPA1 020206Z 19002KT 01/M14 A3033 RMK A01 T00091139  RH  032%=      5-min Rain = 0
KPA1 020207Z 19002KT 01/M14 A3033 RMK A01 T00091136  RH  033%=      5-min Rain = 0
KPA1 020208Z 19002KT 01/M13 A3033 RMK A01 T00101134  RH  033%=      5-min Rain = 0
KPA1 020209Z 19002KT 02/M13 A3033 RMK A01 T00151134  RH  032%=      5-min Rain = 0
KPA1 020210Z 19003KT 02/M14 A3033 RMK A01 T00181135  RH  031%=      5-min Rain = 0
KPA1 020211Z 19003KT 02/M14 A3033 RMK A01 T00201136  RH  030%=      5-min Rain = 0
KPA1 020212Z 19003KT 02/M14 A3033 RMK A01 T00221137  RH  030%=      5-min Rain = 0
KPA1 020213Z 19003KT 02/M14 A3033 RMK A01 T00221139  RH  029%=      5-min Rain = 0
KPA1 020214Z 19003KT 02/M14 A3033 RMK A01 T00221139  RH  029%=      5-min Rain = 0
KPA1 020215Z 19003KT 02/M14 A3033 RMK A01 T00211140  RH  029%=      5-min Rain = 0
KPA1 020216Z 19003KT 02/M14 A3033 RMK A01 T00201140  RH  029%=      5-min Rain = 0
KPA1 020217Z 19003KT 02/M14 A3033 RMK A01 T00191140  RH  030%=      5-min Rain = 0
KPA1 020218Z 19003KT 02/M14 A3033 RMK A01 T00171140  RH  030%=      5-min Rain = 0
KPA1 020219Z 19003KT 02/M14 A3033 RMK A01 T00161141  RH  030%=      5-min Rain = 0
KPA1 020220Z 19003KT 02/M14 A3033 RMK A01 T00161141  RH  030%=      5-min Rain = 0
KPA1 020221Z 19003KT 02/M14 A3033 RMK A01 T00161141  RH  030%=      5-min Rain = 0
KPA1 020222Z 19003KT 02/M14 A3033 RMK A01 T00161141  RH  030%=      5-min Rain = 0
KPA1 020223Z 19003KT 02/M14 A3033 RMK A01 T00151140  RH  031%=      5-min Rain = 0
KPA1 020224Z 19002KT 01/M13 A3033 RMK A01 T00141133  RH  033%=      5-min Rain = 0
KPA1 020225Z 19002KT 01/M13 A3033 RMK A01 T00131128  RH  034%=      5-min Rain = 0
KPA1 020226Z 19002KT 01/M13 A3033 RMK A01 T00111128  RH  035%=      5-min Rain = 0
KPA1 020227Z 19002KT 01/M13 A3033 RMK A01 T00091126  RH  036%=      5-min Rain = 0
KPA1 020228Z 19002KT 01/M13 A3033 RMK A01 T00061126  RH  037%=      5-min Rain = 0
KPA1 020229Z 19002KT 00/M13 A3034 RMK A01 T00031126  RH  037%=      5-min Rain = 0
KPA1 020230Z 19001KT 00/M13 A3034 RMK A01 T00011126  RH  038%=      5-min Rain = 0
KPA1 020231Z 19000KT M00/M12 A3034 RMK A01 T10011124  RH  039%=      5-min Rain = 0
KPA1 020232Z 07001KT M00/M13 A3034 RMK A01 T10041126  RH  039%=      5-min Rain = 0
KPA1 020233Z 06001KT M01/M13 A3034 RMK A01 T10071133  RH  038%=      5-min Rain = 0
KPA1 020234Z 00000KT M01/M14 A3034 RMK A01 T10061136  RH  037%=      5-min Rain = 0
KPA1 020235Z 00000KT M00/M14 A3034 RMK A01 T10011136  RH  035%=      5-min Rain = 0
KPA1 020236Z 00000KT 00/M14 A3034 RMK A01 T00031136  RH  034%=      5-min Rain = 0
KPA1 020237Z 00000KT 01/M14 A3034 RMK A01 T00061137  RH  034%=      5-min Rain = 0
KPA1 020238Z 00000KT 01/M14 A3034 RMK A01 T00061138  RH  033%=      5-min Rain = 0
KPA1 020239Z 00000KT 01/M14 A3034 RMK A01 T00051142  RH  032%=      5-min Rain = 0
KPA1 020240Z 11000KT 01/M15 A3034 RMK A01 T00051146  RH  031%=      5-min Rain = 0
KPA1 020241Z 00000KT 01/M15 A3034 RMK A01 T00051150  RH  030%=      5-min Rain = 0
KPA1 020242Z 11000KT 01/M15 A3034 RMK A01 T00061152  RH  030%=      5-min Rain = 0
KPA1 020243Z 00000KT 01/M15 A3033 RMK A01 T00071153  RH  029%=      5-min Rain = 0
KPA1 020244Z 11000KT 01/M15 A3033 RMK A01 T00081154  RH  029%=      5-min Rain = 0
KPA1 020245Z 11000KT 01/M16 A3033 RMK A01 T00061155  RH  029%=      5-min Rain = 0
KPA1 020246Z 11000KT 00/M15 A3033 RMK A01 T00041154  RH  029%=      5-min Rain = 0
KPA1 020247Z 11000KT 00/M16 A3033 RMK A01 T00021155  RH  030%=      5-min Rain = 0
KPA1 020248Z 11000KT 00/16 A3033 RMK A01 T00-00-157  RH  030%=      5-min Rain = 0
KPA1 020249Z 00000KT M00/M16 A3033 RMK A01 T10021158  RH  030%=      5-min Rain = 0
KPA1 020250Z 11000KT M00/M16 A3033 RMK A01 T10041156  RH  031%=      5-min Rain = 0
KPA1 020251Z 00000KT M01/M16 A3033 RMK A01 T10051155  RH  031%=      5-min Rain = 0
KPA1 020252Z 00000KT M01/M15 A3033 RMK A01 T10061153  RH  032%=      5-min Rain = 0
KPA1 020253Z 11000KT M01/M15 A3033 RMK A01 T10061150  RH  033%=      5-min Rain = 0
KPA1 020254Z 16001KT M01/M15 A3033 RMK A01 T10061148  RH  033%=      5-min Rain = 0
KPA1 020255Z 16000KT M01/M15 A3033 RMK A01 T10081147  RH  034%=      5-min Rain = 0
KPA1 020256Z 16000KT M01/M15 A3033 RMK A01 T10111147  RH  035%=      5-min Rain = 0
KPA1 020257Z 16000KT M01/M15 A3033 RMK A01 T10131147  RH  035%=      5-min Rain = 0
KPA1 020258Z 16001KT M02/M15 A3033 RMK A01 T10151147  RH  036%=      5-min Rain = 0
KPA1 020259Z 16001KT M02/M15 A3033 RMK A01 T10161147  RH  036%=      5-min Rain = 0
KPA1 020300Z 16002KT M02/M15 A3033 RMK A01 T10161146  RH  036%=      5-min Rain = 0
KPA1 020301Z 16002KT M02/M15 A3033 RMK A01 T10171145  RH  037%=      5-min Rain = 0
KPA1 020302Z 17002KT M02/M14 A3033 RMK A01 T10171144  RH  037%=      5-min Rain = 0
KPA1 020303Z 17003KT M02/M14 A3033 RMK A01 T10171142  RH  038%=      5-min Rain = 0
KPA1 020304Z 17003KT M02/M14 A3033 RMK A01 T10171142  RH  038%=      5-min Rain = 0
KPA1 020305Z 18003KT M02/M14 A3033 RMK A01 T10171143  RH  038%=      5-min Rain = 0
KPA1 020306Z 18003KT M02/M14 A3033 RMK A01 T10171143  RH  038%=      5-min Rain = 0
KPA1 020307Z 19003KT M02/M14 A3033 RMK A01 T10171144  RH  037%=      5-min Rain = 0
KPA1 020308Z 19003KT M02/M14 A3033 RMK A01 T10151144  RH  037%=      5-min Rain = 0
KPA1 020309Z 19003KT M01/M14 A3033 RMK A01 T10131143  RH  036%=      5-min Rain = 0
KPA1 020310Z 19003KT M01/M14 A3033 RMK A01 T10111144  RH  036%=      5-min Rain = 0
KPA1 020311Z 19002KT M01/M14 A3033 RMK A01 T10091144  RH  035%=      5-min Rain = 0
KPA1 020312Z 19003KT M01/M15 A3033 RMK A01 T10071145  RH  035%=      5-min Rain = 0
KPA1 020313Z 19003KT M01/M15 A3033 RMK A01 T10061145  RH  034%=      5-min Rain = 0
KPA1 020314Z 19004KT M01/M15 A3033 RMK A01 T10061146  RH  034%=      5-min Rain = 0
KPA1 020315Z 19004KT M01/M15 A3033 RMK A01 T10061146  RH  034%=      5-min Rain = 0
KPA1 020316Z 19003KT M01/M15 A3033 RMK A01 T10051147  RH  033%=      5-min Rain = 0
KPA1 020317Z 19004KT M00/M15 A3033 RMK A01 T10041147  RH  033%=      5-min Rain = 0
KPA1 020318Z 19004KT M00/M15 A3033 RMK A01 T10041148  RH  033%=      5-min Rain = 0
KPA1 020319Z 19004KT M00/M15 A3033 RMK A01 T10031148  RH  033%=      5-min Rain = 0
KPA1 020320Z 19003KT M00/M15 A3033 RMK A01 T10041149  RH  032%=      5-min Rain = 0
KPA1 020321Z 19003KT M00/M15 A3033 RMK A01 T10041149  RH  033%=      5-min Rain = 0
KPA1 020322Z 20003KT M01/M15 A3033 RMK A01 T10061148  RH  033%=      5-min Rain = 0
KPA1 020323Z 20004KT M01/M15 A3033 RMK A01 T10071147  RH  034%=      5-min Rain = 0
KPA1 020324Z 20003KT M01/M15 A3034 RMK A01 T10081145  RH  035%=      5-min Rain = 0
KPA1 020325Z 20004KT M01/M14 A3033 RMK A01 T10091144  RH  035%=      5-min Rain = 0
KPA1 020326Z 20003KT M01/M14 A3033 RMK A01 T10111143  RH  036%=      5-min Rain = 0
KPA1 020327Z 20003KT M01/M14 A3033 RMK A01 T10111142  RH  036%=      5-min Rain = 0
KPA1 020328Z 20003KT M01/M14 A3033 RMK A01 T10131141  RH  037%=      5-min Rain = 0
KPA1 020329Z 19003KT M01/M14 A3033 RMK A01 T10131141  RH  037%=      5-min Rain = 0
KPA1 020330Z 19003KT M01/M14 A3033 RMK A01 T10131140  RH  037%=      5-min Rain = 0
KPA1 020331Z 19003KT M01/M14 A3033 RMK A01 T10131139  RH  038%=      5-min Rain = 0
KPA1 020332Z 20003KT M01/M14 A3033 RMK A01 T10141138  RH  038%=      5-min Rain = 0
KPA1 020333Z 20003KT M01/M14 A3033 RMK A01 T10141138  RH  038%=      5-min Rain = 0
KPA1 020334Z 20004KT M01/M14 A3033 RMK A01 T10141138  RH  038%=      5-min Rain = 0
KPA1 020335Z 20004KT M01/M14 A3033 RMK A01 T10131138  RH  038%=      5-min Rain = 0
KPA1 020336Z 20004KT M01/M14 A3033 RMK A01 T10121138  RH  038%=      5-min Rain = 0
KPA1 020337Z 20004KT M01/M14 A3033 RMK A01 T10111137  RH  038%=      5-min Rain = 0
KPA1 020338Z 20004KT M01/M14 A3033 RMK A01 T10101137  RH  038%=      5-min Rain = 0
KPA1 020339Z 20004KT M01/M14 A3033 RMK A01 T10101137  RH  037%=      5-min Rain = 0
KPA1 020340Z 20004KT M01/M14 A3033 RMK A01 T10091137  RH  037%=      5-min Rain = 0
KPA1 020341Z 20003KT M01/M14 A3033 RMK A01 T10081136  RH  037%=      5-min Rain = 0
KPA1 020342Z 20004KT M01/M14 A3033 RMK A01 T10071136  RH  037%=      5-min Rain = 0
KPA1 020343Z 21004KT M01/M14 A3033 RMK A01 T10071137  RH  037%=      5-min Rain = 0
KPA1 020344Z 20004KT M01/M14 A3033 RMK A01 T10081137  RH  037%=      5-min Rain = 0
KPA1 020345Z 21004KT M01/M14 A3033 RMK A01 T10091138  RH  037%=      5-min Rain = 0
KPA1 020346Z 21004KT M01/M14 A3033 RMK A01 T10101139  RH  037%=      5-min Rain = 0
KPA1 020347Z 21003KT M01/M14 A3033 RMK A01 T10111140  RH  037%=      5-min Rain = 0
KPA1 020348Z 21003KT M01/M14 A3033 RMK A01 T10131142  RH  037%=      5-min Rain = 0
KPA1 020349Z 20003KT M02/M14 A3033 RMK A01 T10151143  RH  037%=      5-min Rain = 0
KPA1 020350Z 20003KT M02/M14 A3033 RMK A01 T10171143  RH  038%=      5-min Rain = 0
KPA1 020351Z 20003KT M02/M14 A3033 RMK A01 T10181142  RH  038%=      5-min Rain = 0
KPA1 020352Z 20003KT M02/M14 A3033 RMK A01 T10181141  RH  039%=      5-min Rain = 0
KPA1 020353Z 20003KT M02/M14 A3033 RMK A01 T10181139  RH  039%=      5-min Rain = 0
KPA1 020354Z 20003KT M02/M14 A3033 RMK A01 T10161138  RH  039%=      5-min Rain = 0
KPA1 020355Z 20003KT M02/M14 A3033 RMK A01 T10151138  RH  039%=      5-min Rain = 0
KPA1 020356Z 20003KT M02/M14 A3033 RMK A01 T10151137  RH  039%=      5-min Rain = 0
KPA1 020357Z 20003KT M02/M14 A3033 RMK A01 T10161138  RH  039%=      5-min Rain = 0
KPA1 020358Z 21003KT M02/M14 A3033 RMK A01 T10181138  RH  039%=      5-min Rain = 0
KPA1 020359Z 21003KT M02/M14 A3033 RMK A01 T10201139  RH  040%=      5-min Rain = 0
KPA1 020400Z 21004KT M02/M14 A3033 RMK A01 T10211139  RH  040%=      5-min Rain = 0
KPA1 020401Z 22004KT M02/M14 A3034 RMK A01 T10221139  RH  040%=      5-min Rain = 0
KPA1 020402Z 21003KT M02/M14 A3033 RMK A01 T10211139  RH  040%=      5-min Rain = 0
KPA1 020403Z 21003KT M02/M14 A3033 RMK A01 T10201138  RH  040%=      5-min Rain = 0
KPA1 020404Z 21004KT M02/M14 A3033 RMK A01 T10191138  RH  040%=      5-min Rain = 0
KPA1 020405Z 21004KT M02/M14 A3033 RMK A01 T10191138  RH  040%=      5-min Rain = 0
KPA1 020406Z 21004KT M02/M14 A3033 RMK A01 T10191138  RH  040%=      5-min Rain = 0
KPA1 020407Z 21004KT M02/M14 A3033 RMK A01 T10191138  RH  040%=      5-min Rain = 0
KPA1 020408Z 21004KT M02/M14 A3033 RMK A01 T10191139  RH  039%=      5-min Rain = 0
KPA1 020409Z 21004KT M02/M14 A3033 RMK A01 T10191139  RH  039%=      5-min Rain = 0
KPA1 020410Z 21004KT M02/M14 A3033 RMK A01 T10181139  RH  039%=      5-min Rain = 0
KPA1 020411Z 21004KT M02/M14 A3033 RMK A01 T10181139  RH  039%=      5-min Rain = 0
KPA1 020412Z 21004KT M02/M14 A3033 RMK A01 T10181140  RH  039%=      5-min Rain = 0
KPA1 020413Z 21004KT M02/M14 A3033 RMK A01 T10181140  RH  039%=      5-min Rain = 0
KPA1 020414Z 21005KT M02/M14 A3033 RMK A01 T10191140  RH  039%=      5-min Rain = 0
KPA1 020415Z 22004KT M02/M14 A3033 RMK A01 T10191140  RH  039%=      5-min Rain = 0
KPA1 020416Z 22004KT M02/M14 A3033 RMK A01 T10191140  RH  039%=      5-min Rain = 0
KPA1 020417Z 22004KT M02/M14 A3033 RMK A01 T10191141  RH  039%=      5-min Rain = 0
KPA1 020418Z 22004KT M02/M14 A3033 RMK A01 T10181140  RH  039%=      5-min Rain = 0
KPA1 020419Z 22004KT M02/M14 A3033 RMK A01 T10171141  RH  038%=      5-min Rain = 0
KPA1 020420Z 21004KT M02/M14 A3033 RMK A01 T10171141  RH  038%=      5-min Rain = 0
KPA1 020421Z 21004KT M02/M14 A3033 RMK A01 T10161141  RH  038%=      5-min Rain = 0
KPA1 020422Z 21004KT M02/M14 A3033 RMK A01 T10161141  RH  038%=      5-min Rain = 0
KPA1 020423Z 21004KT M02/M14 A3033 RMK A01 T10161142  RH  038%=      5-min Rain = 0
KPA1 020424Z 21004KT M02/M14 A3033 RMK A01 T10171142  RH  038%=      5-min Rain = 0
KPA1 020425Z 21004KT M02/M14 A3033 RMK A01 T10191143  RH  038%=      5-min Rain = 0
KPA1 020426Z 21004KT M02/M14 A3033 RMK A01 T10191142  RH  038%=      5-min Rain = 0
KPA1 020427Z 21005KT M02/M14 A3033 RMK A01 T10201142  RH  039%=      5-min Rain = 0
KPA1 020428Z 21005KT M02/M14 A3033 RMK A01 T10201142  RH  039%=      5-min Rain = 0
KPA1 020429Z 22005KT M02/M14 A3033 RMK A01 T10211143  RH  039%=      5-min Rain = 0
KPA1 020430Z 22005KT M02/M14 A3033 RMK A01 T10221143  RH  039%=      5-min Rain = 0
KPA1 020431Z 22004KT M03/M14 A3033 RMK A01 T10251143  RH  040%=      5-min Rain = 0
KPA1 020432Z 21004KT M03/M14 A3033 RMK A01 T10261143  RH  040%=      5-min Rain = 0
KPA1 020433Z 21004KT M03/M14 A3033 RMK A01 T10251143  RH  040%=      5-min Rain = 0
KPA1 020434Z 21004KT M03/M14 A3033 RMK A01 T10251143  RH  040%=      5-min Rain = 0
KPA1 020435Z 21004KT M02/M14 A3033 RMK A01 T10231143  RH  039%=      5-min Rain = 0
KPA1 020436Z 20004KT M02/M14 A3033 RMK A01 T10231144  RH  039%=      5-min Rain = 0
KPA1 020437Z 19005KT M02/M14 A3033 RMK A01 T10231143  RH  039%=      5-min Rain = 0
KPA1 020438Z 20005KT M02/M14 A3033 RMK A01 T10231143  RH  039%=      5-min Rain = 0
KPA1 020439Z 20005KT M02/M14 A3033 RMK A01 T10231142  RH  040%=      5-min Rain = 0
KPA1 020440Z 20005KT M02/M14 A3033 RMK A01 T10241143  RH  040%=      5-min Rain = 0
KPA1 020441Z 21005KT M02/M14 A3033 RMK A01 T10241143  RH  040%=      5-min Rain = 0
KPA1 020442Z 21005KT M03/M14 A3033 RMK A01 T10251144  RH  040%=      5-min Rain = 0
KPA1 020443Z 20005KT M03/M14 A3033 RMK A01 T10251143  RH  040%=      5-min Rain = 0
KPA1 020444Z 20005KT M03/M14 A3033 RMK A01 T10251143  RH  040%=      5-min Rain = 0
KPA1 020445Z 20005KT M03/M14 A3033 RMK A01 T10251143  RH  040%=      5-min Rain = 0
KPA1 020446Z 20005KT M02/M14 A3033 RMK A01 T10231143  RH  040%=      5-min Rain = 0
KPA1 020447Z 21005KT M02/M14 A3033 RMK A01 T10221143  RH  039%=      5-min Rain = 0
KPA1 020448Z 20005KT M02/M14 A3033 RMK A01 T10211143  RH  039%=      5-min Rain = 0
KPA1 020449Z 20005KT M02/M14 A3033 RMK A01 T10201143  RH  039%=      5-min Rain = 0
KPA1 020450Z 20006KT M02/M14 A3033 RMK A01 T10201143  RH  038%=      5-min Rain = 0
KPA1 020451Z 19005KT M02/M14 A3033 RMK A01 T10211143  RH  038%=      5-min Rain = 0
KPA1 020452Z 19004KT M02/M14 A3033 RMK A01 T10201143  RH  038%=      5-min Rain = 0
KPA1 020453Z 19004KT M02/M14 A3033 RMK A01 T10211144  RH  038%=      5-min Rain = 0
KPA1 020454Z 19006KT M02/M15 A3033 RMK A01 T10231145  RH  039%=      5-min Rain = 0
KPA1 020455Z 19005KT M02/M14 A3033 RMK A01 T10211143  RH  039%=      5-min Rain = 0
KPA1 020456Z 19006KT M02/M14 A3033 RMK A01 T10191141  RH  039%=      5-min Rain = 0
KPA1 020457Z 18007KT M02/M14 A3033 RMK A01 T10201141  RH  039%=      5-min Rain = 0
KPA1 020458Z 19006KT M02/M14 A3033 RMK A01 T10191140  RH  039%=      5-min Rain = 0
KPA1 020459Z 19007KT M02/M14 A3033 RMK A01 T10191139  RH  039%=      5-min Rain = 0
KPA1 020500Z 19007KT M02/M14 A3033 RMK A01 T10191139  RH  039%=      5-min Rain = 0
KPA1 020501Z 19007KT M02/M14 A3033 RMK A01 T10201138  RH  040%=      5-min Rain = 0
KPA1 020502Z 19006KT M02/M14 A3033 RMK A01 T10231139  RH  041%=      5-min Rain = 0
KPA1 020503Z 19006KT M03/M14 A3033 RMK A01 T10251139  RH  041%=      5-min Rain = 0
KPA1 020504Z 19005KT M03/M14 A3032 RMK A01 T10271138  RH  042%=      5-min Rain = 0
KPA1 020505Z 19005KT M03/M14 A3032 RMK A01 T10291138  RH  043%=      5-min Rain = 0
KPA1 020506Z 20005KT M03/M14 A3032 RMK A01 T10311138  RH  043%=      5-min Rain = 0
KPA1 020507Z 20005KT M03/M14 A3032 RMK A01 T10321138  RH  044%=      5-min Rain = 0
KPA1 020508Z 21005KT M03/M14 A3032 RMK A01 T10321137  RH  044%=      5-min Rain = 0
KPA1 020509Z 21005KT M03/M14 A3032 RMK A01 T10341137  RH  045%=      5-min Rain = 0
KPA1 020510Z 21005KT M04/M14 A3032 RMK A01 T10351137  RH  045%=      5-min Rain = 0
KPA1 020511Z 21005KT M04/M14 A3032 RMK A01 T10361137  RH  045%=      5-min Rain = 0
KPA1 020512Z 21005KT M04/M14 A3032 RMK A01 T10361136  RH  046%=      5-min Rain = 0
KPA1 020513Z 21006KT M04/M14 A3032 RMK A01 T10351136  RH  046%=      5-min Rain = 0
KPA1 020514Z 21006KT M03/M14 A3032 RMK A01 T10341135  RH  046%=      5-min Rain = 0
KPA1 020515Z 21006KT M03/M13 A3032 RMK A01 T10331134  RH  046%=      5-min Rain = 0
KPA1 020516Z 21005KT M03/M14 A3032 RMK A01 T10331135  RH  045%=      5-min Rain = 0
KPA1 020517Z 20005KT M03/M14 A3032 RMK A01 T10331135  RH  045%=      5-min Rain = 0
KPA1 020518Z 20005KT M03/M14 A3032 RMK A01 T10321135  RH  045%=      5-min Rain = 0
KPA1 020519Z 20005KT M03/M14 A3032 RMK A01 T10311136  RH  044%=      5-min Rain = 0
KPA1 020520Z 20005KT M03/M14 A3032 RMK A01 T10311136  RH  044%=      5-min Rain = 0
KPA1 020521Z 20004KT M03/M14 A3032 RMK A01 T10311137  RH  044%=      5-min Rain = 0
KPA1 020522Z 20004KT M03/M14 A3032 RMK A01 T10311137  RH  044%=      5-min Rain = 0
KPA1 020523Z 20004KT M03/M14 A3032 RMK A01 T10301137  RH  044%=      5-min Rain = 0
KPA1 020524Z 20004KT M03/M14 A3032 RMK A01 T10311137  RH  044%=      5-min Rain = 0
KPA1 020525Z 20004KT M03/M14 A3032 RMK A01 T10321138  RH  044%=      5-min Rain = 0
KPA1 020526Z 20004KT M03/M14 A3032 RMK A01 T10331138  RH  044%=      5-min Rain = 0
KPA1 020527Z 21004KT M03/M14 A3032 RMK A01 T10341139  RH  044%=      5-min Rain = 0
KPA1 020528Z 21004KT M03/M14 A3032 RMK A01 T10341140  RH  044%=      5-min Rain = 0
KPA1 020529Z 20004KT M04/M14 A3032 RMK A01 T10351140  RH  044%=      5-min Rain = 0
KPA1 020530Z 20004KT M03/M14 A3032 RMK A01 T10341139  RH  044%=      5-min Rain = 0
KPA1 020531Z 20004KT M03/M14 A3032 RMK A01 T10331139  RH  044%=      5-min Rain = 0
KPA1 020532Z 19004KT M03/M14 A3032 RMK A01 T10321139  RH  044%=      5-min Rain = 0
KPA1 020533Z 20004KT M03/M14 A3032 RMK A01 T10331139  RH  044%=      5-min Rain = 0
KPA1 020534Z 20004KT M03/M14 A3032 RMK A01 T10341139  RH  044%=      5-min Rain = 0
KPA1 020535Z 19004KT M03/M14 A3032 RMK A01 T10341138  RH  044%=      5-min Rain = 0
KPA1 020536Z 20004KT M03/M14 A3032 RMK A01 T10341138  RH  045%=      5-min Rain = 0
KPA1 020537Z 20004KT M04/M14 A3032 RMK A01 T10351137  RH  045%=      5-min Rain = 0
KPA1 020538Z 20004KT M04/M14 A3032 RMK A01 T10351137  RH  045%=      5-min Rain = 0
KPA1 020539Z 21004KT M04/M14 A3032 RMK A01 T10351136  RH  045%=      5-min Rain = 0
KPA1 020540Z 21004KT M04/M14 A3032 RMK A01 T10351136  RH  045%=      5-min Rain = 0
KPA1 020541Z 21004KT M04/M14 A3032 RMK A01 T10351136  RH  045%=      5-min Rain = 0
KPA1 020542Z 21004KT M04/M14 A3031 RMK A01 T10351136  RH  046%=      5-min Rain = 0
KPA1 020543Z 21004KT M03/M14 A3031 RMK A01 T10341135  RH  046%=      5-min Rain = 0
KPA1 020544Z 21004KT M03/M14 A3031 RMK A01 T10341135  RH  046%=      5-min Rain = 0
KPA1 020545Z 21004KT M03/M14 A3031 RMK A01 T10341135  RH  046%=      5-min Rain = 0
KPA1 020546Z 21004KT M03/M14 A3031 RMK A01 T10341135  RH  046%=      5-min Rain = 0
KPA1 020547Z 21005KT M03/M14 A3032 RMK A01 T10341135  RH  045%=      5-min Rain = 0
KPA1 020548Z 21005KT M03/M14 A3032 RMK A01 T10341135  RH  045%=      5-min Rain = 0
KPA1 020549Z 21006KT M03/M14 A3032 RMK A01 T10341135  RH  045%=      5-min Rain = 0
KPA1 020550Z 22006KT M03/M14 A3032 RMK A01 T10341135  RH  045%=      5-min Rain = 0
KPA1 020551Z 22005KT M04/M14 A3032 RMK A01 T10351137  RH  045%=      5-min Rain = 0
KPA1 020552Z 22006KT M04/M14 A3032 RMK A01 T10361138  RH  045%=      5-min Rain = 0
KPA1 020553Z 21006KT M04/M14 A3031 RMK A01 T10371138  RH  046%=      5-min Rain = 0
KPA1 020554Z 21006KT M04/M14 A3031 RMK A01 T10391137  RH  046%=      5-min Rain = 0
KPA1 020555Z 21005KT M04/M14 A3031 RMK A01 T10401137  RH  047%=      5-min Rain = 0
KPA1 020556Z 21005KT M04/M14 A3031 RMK A01 T10421138  RH  047%=      5-min Rain = 0
KPA1 020557Z 22006KT M04/M14 A3031 RMK A01 T10431139  RH  047%=      5-min Rain = 0
KPA1 020558Z 22006KT M04/M14 A3031 RMK A01 T10431139  RH  047%=      5-min Rain = 0
KPA1 020559Z 22006KT M04/M14 A3031 RMK A01 T10441139  RH  047%=      5-min Rain = 0

Page generated in 0.0639 seconds.